<?xml version="1.0" encoding="UTF-8" standalone="no" ?>
<gpx xmlns="http://www.topografix.com/GPX/1/1" xmlns:xsi="http://www.w3.org/2001/XMLSchema-instance" xsi:schemaLocation="http://www.topografix.com/GPX/1/1 http://www.topografix.com/GPX/1/1/gpx.xsd" version="1.1" creator="VisuGPX - https://www.visugpx.com">
  <metadata>
    <name>randonnée VTT le 24 mars 2019</name>
    <desc><![CDATA[randonnée VTT le 24 mars 2019, près de BRAS]]></desc>
  </metadata>
  <trk>
    <name><![CDATA[2019-03-24 11:00:44]]></name>
    <trkseg>
      <trkpt lat="43.44829" lon="5.86116">
        <ele>323.14</ele>
        <time>2019-03-24T08:31:54Z</time>
      </trkpt>
      <trkpt lat="43.44832" lon="5.8612">
        <ele>323.14</ele>
        <time>2019-03-24T08:31:55Z</time>
      </trkpt>
      <trkpt lat="43.44835" lon="5.86124">
        <ele>323.14</ele>
        <time>2019-03-24T08:31:56Z</time>
      </trkpt>
      <trkpt lat="43.44837" lon="5.86129">
        <ele>323.14</ele>
        <time>2019-03-24T08:31:57Z</time>
      </trkpt>
      <trkpt lat="43.44838" lon="5.86135">
        <ele>323.14</ele>
        <time>2019-03-24T08:31:58Z</time>
      </trkpt>
      <trkpt lat="43.44837" lon="5.86142">
        <ele>323.14</ele>
        <time>2019-03-24T08:31:59Z</time>
      </trkpt>
      <trkpt lat="43.44835" lon="5.86148">
        <ele>323.14</ele>
        <time>2019-03-24T08:32:00Z</time>
      </trkpt>
      <trkpt lat="43.44832" lon="5.86155">
        <ele>323.14</ele>
        <time>2019-03-24T08:32:01Z</time>
      </trkpt>
      <trkpt lat="43.44829" lon="5.8616">
        <ele>323.14</ele>
        <time>2019-03-24T08:32:02Z</time>
      </trkpt>
      <trkpt lat="43.44824" lon="5.8617">
        <ele>323.14</ele>
        <time>2019-03-24T08:32:04Z</time>
      </trkpt>
      <trkpt lat="43.44807" lon="5.86198">
        <ele>323.14</ele>
        <time>2019-03-24T08:32:11Z</time>
      </trkpt>
      <trkpt lat="43.44807" lon="5.86202">
        <ele>323.14</ele>
        <time>2019-03-24T08:32:12Z</time>
      </trkpt>
      <trkpt lat="43.44809" lon="5.86207">
        <ele>323.14</ele>
        <time>2019-03-24T08:32:13Z</time>
      </trkpt>
      <trkpt lat="43.44811" lon="5.86211">
        <ele>323.14</ele>
        <time>2019-03-24T08:32:14Z</time>
      </trkpt>
      <trkpt lat="43.44814" lon="5.86215">
        <ele>322.66</ele>
        <time>2019-03-24T08:32:15Z</time>
      </trkpt>
      <trkpt lat="43.44817" lon="5.86219">
        <ele>322.66</ele>
        <time>2019-03-24T08:32:16Z</time>
      </trkpt>
      <trkpt lat="43.44845" lon="5.86258">
        <ele>320.74</ele>
        <time>2019-03-24T08:32:25Z</time>
      </trkpt>
      <trkpt lat="43.44847" lon="5.86264">
        <ele>320.74</ele>
        <time>2019-03-24T08:32:26Z</time>
      </trkpt>
      <trkpt lat="43.44849" lon="5.86269">
        <ele>320.26</ele>
        <time>2019-03-24T08:32:27Z</time>
      </trkpt>
      <trkpt lat="43.4485" lon="5.86274">
        <ele>320.26</ele>
        <time>2019-03-24T08:32:28Z</time>
      </trkpt>
      <trkpt lat="43.44851" lon="5.8628">
        <ele>320.26</ele>
        <time>2019-03-24T08:32:29Z</time>
      </trkpt>
      <trkpt lat="43.44856" lon="5.86291">
        <ele>320.26</ele>
        <time>2019-03-24T08:32:31Z</time>
      </trkpt>
      <trkpt lat="43.44879" lon="5.8632">
        <ele>319.3</ele>
        <time>2019-03-24T08:32:38Z</time>
      </trkpt>
      <trkpt lat="43.44932" lon="5.86356">
        <ele>319.3</ele>
        <time>2019-03-24T08:32:49Z</time>
      </trkpt>
      <trkpt lat="43.44936" lon="5.86359">
        <ele>318.81</ele>
        <time>2019-03-24T08:32:50Z</time>
      </trkpt>
      <trkpt lat="43.44973" lon="5.86385">
        <ele>317.37</ele>
        <time>2019-03-24T08:32:59Z</time>
      </trkpt>
      <trkpt lat="43.44977" lon="5.86388">
        <ele>317.37</ele>
        <time>2019-03-24T08:33:00Z</time>
      </trkpt>
      <trkpt lat="43.44982" lon="5.86392">
        <ele>317.37</ele>
        <time>2019-03-24T08:33:01Z</time>
      </trkpt>
      <trkpt lat="43.44985" lon="5.86397">
        <ele>317.37</ele>
        <time>2019-03-24T08:33:02Z</time>
      </trkpt>
      <trkpt lat="43.44988" lon="5.86402">
        <ele>317.37</ele>
        <time>2019-03-24T08:33:03Z</time>
      </trkpt>
      <trkpt lat="43.4499" lon="5.86408">
        <ele>317.37</ele>
        <time>2019-03-24T08:33:04Z</time>
      </trkpt>
      <trkpt lat="43.44993" lon="5.86415">
        <ele>316.89</ele>
        <time>2019-03-24T08:33:05Z</time>
      </trkpt>
      <trkpt lat="43.44995" lon="5.86421">
        <ele>316.89</ele>
        <time>2019-03-24T08:33:06Z</time>
      </trkpt>
      <trkpt lat="43.45007" lon="5.86443">
        <ele>316.89</ele>
        <time>2019-03-24T08:33:10Z</time>
      </trkpt>
      <trkpt lat="43.45057" lon="5.86509">
        <ele>315.45</ele>
        <time>2019-03-24T08:33:25Z</time>
      </trkpt>
      <trkpt lat="43.45076" lon="5.8653">
        <ele>314.01</ele>
        <time>2019-03-24T08:33:30Z</time>
      </trkpt>
      <trkpt lat="43.45111" lon="5.86558">
        <ele>313.05</ele>
        <time>2019-03-24T08:33:38Z</time>
      </trkpt>
      <trkpt lat="43.45115" lon="5.86563">
        <ele>313.05</ele>
        <time>2019-03-24T08:33:39Z</time>
      </trkpt>
      <trkpt lat="43.45119" lon="5.86567">
        <ele>312.57</ele>
        <time>2019-03-24T08:33:40Z</time>
      </trkpt>
      <trkpt lat="43.45123" lon="5.86573">
        <ele>312.57</ele>
        <time>2019-03-24T08:33:41Z</time>
      </trkpt>
      <trkpt lat="43.45125" lon="5.86579">
        <ele>312.09</ele>
        <time>2019-03-24T08:33:42Z</time>
      </trkpt>
      <trkpt lat="43.45127" lon="5.86585">
        <ele>312.09</ele>
        <time>2019-03-24T08:33:43Z</time>
      </trkpt>
      <trkpt lat="43.45128" lon="5.86591">
        <ele>312.09</ele>
        <time>2019-03-24T08:33:44Z</time>
      </trkpt>
      <trkpt lat="43.45133" lon="5.86613">
        <ele>312.09</ele>
        <time>2019-03-24T08:33:47Z</time>
      </trkpt>
      <trkpt lat="43.45133" lon="5.86621">
        <ele>312.09</ele>
        <time>2019-03-24T08:33:48Z</time>
      </trkpt>
      <trkpt lat="43.45133" lon="5.86627">
        <ele>312.09</ele>
        <time>2019-03-24T08:33:49Z</time>
      </trkpt>
      <trkpt lat="43.45131" lon="5.86635">
        <ele>312.09</ele>
        <time>2019-03-24T08:33:50Z</time>
      </trkpt>
      <trkpt lat="43.45129" lon="5.86642">
        <ele>312.09</ele>
        <time>2019-03-24T08:33:51Z</time>
      </trkpt>
      <trkpt lat="43.45126" lon="5.86649">
        <ele>312.09</ele>
        <time>2019-03-24T08:33:52Z</time>
      </trkpt>
      <trkpt lat="43.45122" lon="5.86654">
        <ele>312.09</ele>
        <time>2019-03-24T08:33:53Z</time>
      </trkpt>
      <trkpt lat="43.45077" lon="5.8673">
        <ele>312.09</ele>
        <time>2019-03-24T08:34:10Z</time>
      </trkpt>
      <trkpt lat="43.45019" lon="5.86803">
        <ele>311.6</ele>
        <time>2019-03-24T08:34:30Z</time>
      </trkpt>
      <trkpt lat="43.44987" lon="5.86841">
        <ele>314.97</ele>
        <time>2019-03-24T08:34:43Z</time>
      </trkpt>
      <trkpt lat="43.44971" lon="5.86916">
        <ele>314.97</ele>
        <time>2019-03-24T08:34:56Z</time>
      </trkpt>
      <trkpt lat="43.44969" lon="5.86935">
        <ele>313.53</ele>
        <time>2019-03-24T08:34:59Z</time>
      </trkpt>
      <trkpt lat="43.44969" lon="5.86941">
        <ele>313.53</ele>
        <time>2019-03-24T08:35:00Z</time>
      </trkpt>
      <trkpt lat="43.4497" lon="5.86947">
        <ele>313.05</ele>
        <time>2019-03-24T08:35:01Z</time>
      </trkpt>
      <trkpt lat="43.44976" lon="5.86984">
        <ele>312.57</ele>
        <time>2019-03-24T08:35:08Z</time>
      </trkpt>
      <trkpt lat="43.44981" lon="5.87002">
        <ele>311.6</ele>
        <time>2019-03-24T08:35:11Z</time>
      </trkpt>
      <trkpt lat="43.44982" lon="5.87008">
        <ele>311.6</ele>
        <time>2019-03-24T08:35:12Z</time>
      </trkpt>
      <trkpt lat="43.44983" lon="5.87015">
        <ele>311.12</ele>
        <time>2019-03-24T08:35:13Z</time>
      </trkpt>
      <trkpt lat="43.44984" lon="5.87021">
        <ele>310.64</ele>
        <time>2019-03-24T08:35:14Z</time>
      </trkpt>
      <trkpt lat="43.44983" lon="5.87027">
        <ele>310.64</ele>
        <time>2019-03-24T08:35:15Z</time>
      </trkpt>
      <trkpt lat="43.44981" lon="5.87033">
        <ele>310.64</ele>
        <time>2019-03-24T08:35:16Z</time>
      </trkpt>
      <trkpt lat="43.44978" lon="5.87038">
        <ele>309.68</ele>
        <time>2019-03-24T08:35:17Z</time>
      </trkpt>
      <trkpt lat="43.44975" lon="5.87042">
        <ele>309.68</ele>
        <time>2019-03-24T08:35:18Z</time>
      </trkpt>
      <trkpt lat="43.44971" lon="5.87045">
        <ele>309.2</ele>
        <time>2019-03-24T08:35:19Z</time>
      </trkpt>
      <trkpt lat="43.44919" lon="5.87082">
        <ele>308.72</ele>
        <time>2019-03-24T08:35:31Z</time>
      </trkpt>
      <trkpt lat="43.44916" lon="5.87085">
        <ele>308.72</ele>
        <time>2019-03-24T08:35:32Z</time>
      </trkpt>
      <trkpt lat="43.44913" lon="5.87089">
        <ele>308.72</ele>
        <time>2019-03-24T08:35:33Z</time>
      </trkpt>
      <trkpt lat="43.44911" lon="5.87093">
        <ele>308.72</ele>
        <time>2019-03-24T08:35:34Z</time>
      </trkpt>
      <trkpt lat="43.4491" lon="5.87097">
        <ele>308.72</ele>
        <time>2019-03-24T08:35:35Z</time>
      </trkpt>
      <trkpt lat="43.44909" lon="5.87102">
        <ele>308.72</ele>
        <time>2019-03-24T08:35:36Z</time>
      </trkpt>
      <trkpt lat="43.44908" lon="5.87107">
        <ele>308.72</ele>
        <time>2019-03-24T08:35:37Z</time>
      </trkpt>
      <trkpt lat="43.44903" lon="5.87183">
        <ele>307.76</ele>
        <time>2019-03-24T08:35:50Z</time>
      </trkpt>
      <trkpt lat="43.44892" lon="5.87254">
        <ele>307.28</ele>
        <time>2019-03-24T08:36:04Z</time>
      </trkpt>
      <trkpt lat="43.4487" lon="5.87298">
        <ele>307.28</ele>
        <time>2019-03-24T08:36:14Z</time>
      </trkpt>
      <trkpt lat="43.44867" lon="5.87303">
        <ele>307.28</ele>
        <time>2019-03-24T08:36:15Z</time>
      </trkpt>
      <trkpt lat="43.44864" lon="5.87308">
        <ele>307.28</ele>
        <time>2019-03-24T08:36:16Z</time>
      </trkpt>
      <trkpt lat="43.44858" lon="5.87317">
        <ele>307.28</ele>
        <time>2019-03-24T08:36:18Z</time>
      </trkpt>
      <trkpt lat="43.44855" lon="5.8732">
        <ele>306.32</ele>
        <time>2019-03-24T08:36:19Z</time>
      </trkpt>
      <trkpt lat="43.44851" lon="5.87323">
        <ele>306.32</ele>
        <time>2019-03-24T08:36:20Z</time>
      </trkpt>
      <trkpt lat="43.44847" lon="5.87326">
        <ele>305.84</ele>
        <time>2019-03-24T08:36:21Z</time>
      </trkpt>
      <trkpt lat="43.44842" lon="5.87328">
        <ele>305.36</ele>
        <time>2019-03-24T08:36:22Z</time>
      </trkpt>
      <trkpt lat="43.44837" lon="5.87329">
        <ele>304.88</ele>
        <time>2019-03-24T08:36:23Z</time>
      </trkpt>
      <trkpt lat="43.44832" lon="5.8733">
        <ele>304.88</ele>
        <time>2019-03-24T08:36:24Z</time>
      </trkpt>
      <trkpt lat="43.44827" lon="5.8733">
        <ele>304.88</ele>
        <time>2019-03-24T08:36:25Z</time>
      </trkpt>
      <trkpt lat="43.44822" lon="5.87333">
        <ele>303.91</ele>
        <time>2019-03-24T08:36:26Z</time>
      </trkpt>
      <trkpt lat="43.44818" lon="5.87336">
        <ele>303.91</ele>
        <time>2019-03-24T08:36:27Z</time>
      </trkpt>
      <trkpt lat="43.44814" lon="5.87341">
        <ele>303.43</ele>
        <time>2019-03-24T08:36:28Z</time>
      </trkpt>
      <trkpt lat="43.44811" lon="5.87346">
        <ele>303.43</ele>
        <time>2019-03-24T08:36:29Z</time>
      </trkpt>
      <trkpt lat="43.44808" lon="5.87351">
        <ele>303.43</ele>
        <time>2019-03-24T08:36:30Z</time>
      </trkpt>
      <trkpt lat="43.44768" lon="5.87442">
        <ele>301.99</ele>
        <time>2019-03-24T08:36:46Z</time>
      </trkpt>
      <trkpt lat="43.44759" lon="5.87472">
        <ele>301.51</ele>
        <time>2019-03-24T08:36:52Z</time>
      </trkpt>
      <trkpt lat="43.44761" lon="5.87478">
        <ele>301.51</ele>
        <time>2019-03-24T08:36:53Z</time>
      </trkpt>
      <trkpt lat="43.44763" lon="5.87481">
        <ele>301.51</ele>
        <time>2019-03-24T08:36:54Z</time>
      </trkpt>
      <trkpt lat="43.44794" lon="5.8753">
        <ele>301.03</ele>
        <time>2019-03-24T08:37:05Z</time>
      </trkpt>
      <trkpt lat="43.44795" lon="5.87536">
        <ele>301.03</ele>
        <time>2019-03-24T08:37:06Z</time>
      </trkpt>
      <trkpt lat="43.44796" lon="5.87543">
        <ele>301.03</ele>
        <time>2019-03-24T08:37:07Z</time>
      </trkpt>
      <trkpt lat="43.44798" lon="5.87562">
        <ele>301.03</ele>
        <time>2019-03-24T08:37:10Z</time>
      </trkpt>
      <trkpt lat="43.44798" lon="5.87568">
        <ele>301.03</ele>
        <time>2019-03-24T08:37:11Z</time>
      </trkpt>
      <trkpt lat="43.44805" lon="5.87599">
        <ele>301.03</ele>
        <time>2019-03-24T08:37:17Z</time>
      </trkpt>
      <trkpt lat="43.44813" lon="5.87619">
        <ele>301.03</ele>
        <time>2019-03-24T08:37:21Z</time>
      </trkpt>
      <trkpt lat="43.44816" lon="5.87622">
        <ele>301.03</ele>
        <time>2019-03-24T08:37:22Z</time>
      </trkpt>
      <trkpt lat="43.44819" lon="5.87625">
        <ele>301.03</ele>
        <time>2019-03-24T08:37:23Z</time>
      </trkpt>
      <trkpt lat="43.44823" lon="5.87628">
        <ele>301.03</ele>
        <time>2019-03-24T08:37:24Z</time>
      </trkpt>
      <trkpt lat="43.44827" lon="5.87629">
        <ele>301.03</ele>
        <time>2019-03-24T08:37:25Z</time>
      </trkpt>
      <trkpt lat="43.44831" lon="5.87631">
        <ele>301.03</ele>
        <time>2019-03-24T08:37:26Z</time>
      </trkpt>
      <trkpt lat="43.44836" lon="5.87632">
        <ele>301.03</ele>
        <time>2019-03-24T08:37:27Z</time>
      </trkpt>
      <trkpt lat="43.44858" lon="5.87636">
        <ele>301.03</ele>
        <time>2019-03-24T08:37:32Z</time>
      </trkpt>
      <trkpt lat="43.44862" lon="5.87639">
        <ele>301.03</ele>
        <time>2019-03-24T08:37:33Z</time>
      </trkpt>
      <trkpt lat="43.44865" lon="5.87642">
        <ele>301.03</ele>
        <time>2019-03-24T08:37:34Z</time>
      </trkpt>
      <trkpt lat="43.44868" lon="5.87647">
        <ele>301.03</ele>
        <time>2019-03-24T08:37:35Z</time>
      </trkpt>
      <trkpt lat="43.4487" lon="5.87652">
        <ele>301.03</ele>
        <time>2019-03-24T08:37:36Z</time>
      </trkpt>
      <trkpt lat="43.44877" lon="5.87668">
        <ele>301.03</ele>
        <time>2019-03-24T08:37:39Z</time>
      </trkpt>
      <trkpt lat="43.44889" lon="5.87696">
        <ele>301.03</ele>
        <time>2019-03-24T08:37:44Z</time>
      </trkpt>
      <trkpt lat="43.44924" lon="5.87752">
        <ele>300.55</ele>
        <time>2019-03-24T08:37:56Z</time>
      </trkpt>
      <trkpt lat="43.44926" lon="5.87758">
        <ele>300.55</ele>
        <time>2019-03-24T08:37:57Z</time>
      </trkpt>
      <trkpt lat="43.44927" lon="5.87764">
        <ele>300.55</ele>
        <time>2019-03-24T08:37:58Z</time>
      </trkpt>
      <trkpt lat="43.44928" lon="5.87771">
        <ele>300.55</ele>
        <time>2019-03-24T08:37:59Z</time>
      </trkpt>
      <trkpt lat="43.44928" lon="5.87777">
        <ele>300.07</ele>
        <time>2019-03-24T08:38:00Z</time>
      </trkpt>
      <trkpt lat="43.44929" lon="5.87783">
        <ele>300.07</ele>
        <time>2019-03-24T08:38:01Z</time>
      </trkpt>
      <trkpt lat="43.4493" lon="5.87801">
        <ele>300.07</ele>
        <time>2019-03-24T08:38:04Z</time>
      </trkpt>
      <trkpt lat="43.44931" lon="5.87807">
        <ele>300.07</ele>
        <time>2019-03-24T08:38:05Z</time>
      </trkpt>
      <trkpt lat="43.44933" lon="5.87812">
        <ele>300.07</ele>
        <time>2019-03-24T08:38:06Z</time>
      </trkpt>
      <trkpt lat="43.44935" lon="5.87817">
        <ele>300.07</ele>
        <time>2019-03-24T08:38:07Z</time>
      </trkpt>
      <trkpt lat="43.44938" lon="5.87822">
        <ele>300.07</ele>
        <time>2019-03-24T08:38:08Z</time>
      </trkpt>
      <trkpt lat="43.44941" lon="5.87826">
        <ele>300.07</ele>
        <time>2019-03-24T08:38:09Z</time>
      </trkpt>
      <trkpt lat="43.44944" lon="5.8783">
        <ele>300.07</ele>
        <time>2019-03-24T08:38:10Z</time>
      </trkpt>
      <trkpt lat="43.44985" lon="5.87868">
        <ele>300.07</ele>
        <time>2019-03-24T08:38:23Z</time>
      </trkpt>
      <trkpt lat="43.44989" lon="5.87868">
        <ele>300.07</ele>
        <time>2019-03-24T08:38:24Z</time>
      </trkpt>
      <trkpt lat="43.45007" lon="5.87865">
        <ele>300.07</ele>
        <time>2019-03-24T08:38:28Z</time>
      </trkpt>
      <trkpt lat="43.45012" lon="5.87865">
        <ele>300.07</ele>
        <time>2019-03-24T08:38:29Z</time>
      </trkpt>
      <trkpt lat="43.45016" lon="5.87867">
        <ele>300.07</ele>
        <time>2019-03-24T08:38:30Z</time>
      </trkpt>
      <trkpt lat="43.45019" lon="5.87871">
        <ele>300.07</ele>
        <time>2019-03-24T08:38:31Z</time>
      </trkpt>
      <trkpt lat="43.45022" lon="5.87874">
        <ele>300.07</ele>
        <time>2019-03-24T08:38:32Z</time>
      </trkpt>
      <trkpt lat="43.45024" lon="5.87878">
        <ele>300.07</ele>
        <time>2019-03-24T08:38:33Z</time>
      </trkpt>
      <trkpt lat="43.45026" lon="5.87883">
        <ele>300.07</ele>
        <time>2019-03-24T08:38:34Z</time>
      </trkpt>
      <trkpt lat="43.45028" lon="5.87887">
        <ele>299.59</ele>
        <time>2019-03-24T08:38:35Z</time>
      </trkpt>
      <trkpt lat="43.4507" lon="5.87968">
        <ele>299.59</ele>
        <time>2019-03-24T08:38:52Z</time>
      </trkpt>
      <trkpt lat="43.4511" lon="5.88058">
        <ele>299.59</ele>
        <time>2019-03-24T08:39:12Z</time>
      </trkpt>
      <trkpt lat="43.45129" lon="5.88138">
        <ele>301.51</ele>
        <time>2019-03-24T08:39:27Z</time>
      </trkpt>
      <trkpt lat="43.45131" lon="5.88225">
        <ele>302.95</ele>
        <time>2019-03-24T08:39:45Z</time>
      </trkpt>
      <trkpt lat="43.45111" lon="5.883">
        <ele>301.51</ele>
        <time>2019-03-24T08:40:01Z</time>
      </trkpt>
      <trkpt lat="43.45072" lon="5.88381">
        <ele>301.51</ele>
        <time>2019-03-24T08:40:21Z</time>
      </trkpt>
      <trkpt lat="43.45049" lon="5.88416">
        <ele>301.51</ele>
        <time>2019-03-24T08:40:33Z</time>
      </trkpt>
      <trkpt lat="43.45012" lon="5.88465">
        <ele>301.51</ele>
        <time>2019-03-24T08:40:50Z</time>
      </trkpt>
      <trkpt lat="43.44986" lon="5.88531">
        <ele>303.43</ele>
        <time>2019-03-24T08:41:09Z</time>
      </trkpt>
      <trkpt lat="43.44961" lon="5.88579">
        <ele>304.39</ele>
        <time>2019-03-24T08:41:25Z</time>
      </trkpt>
      <trkpt lat="43.44944" lon="5.88618">
        <ele>305.84</ele>
        <time>2019-03-24T08:41:40Z</time>
      </trkpt>
      <trkpt lat="43.44946" lon="5.88618">
        <ele>305.84</ele>
        <time>2019-03-24T08:41:41Z</time>
      </trkpt>
      <trkpt lat="43.44948" lon="5.88619">
        <ele>305.84</ele>
        <time>2019-03-24T08:41:42Z</time>
      </trkpt>
      <trkpt lat="43.4495" lon="5.8862">
        <ele>305.84</ele>
        <time>2019-03-24T08:41:43Z</time>
      </trkpt>
      <trkpt lat="43.44953" lon="5.88622">
        <ele>305.84</ele>
        <time>2019-03-24T08:41:44Z</time>
      </trkpt>
      <trkpt lat="43.44955" lon="5.88625">
        <ele>305.84</ele>
        <time>2019-03-24T08:41:45Z</time>
      </trkpt>
      <trkpt lat="43.44957" lon="5.88627">
        <ele>305.84</ele>
        <time>2019-03-24T08:41:46Z</time>
      </trkpt>
      <trkpt lat="43.44974" lon="5.88652">
        <ele>307.28</ele>
        <time>2019-03-24T08:41:57Z</time>
      </trkpt>
      <trkpt lat="43.44988" lon="5.88649">
        <ele>307.28</ele>
        <time>2019-03-24T08:41:59Z</time>
      </trkpt>
      <trkpt lat="43.44994" lon="5.88647">
        <ele>307.28</ele>
        <time>2019-03-24T08:42:00Z</time>
      </trkpt>
      <trkpt lat="43.44999" lon="5.88645">
        <ele>307.28</ele>
        <time>2019-03-24T08:42:01Z</time>
      </trkpt>
      <trkpt lat="43.45003" lon="5.88644">
        <ele>307.28</ele>
        <time>2019-03-24T08:42:02Z</time>
      </trkpt>
      <trkpt lat="43.45008" lon="5.88642">
        <ele>307.28</ele>
        <time>2019-03-24T08:42:03Z</time>
      </trkpt>
      <trkpt lat="43.45017" lon="5.88637">
        <ele>305.36</ele>
        <time>2019-03-24T08:42:05Z</time>
      </trkpt>
      <trkpt lat="43.45022" lon="5.88636">
        <ele>304.88</ele>
        <time>2019-03-24T08:42:06Z</time>
      </trkpt>
      <trkpt lat="43.45081" lon="5.88616">
        <ele>303.91</ele>
        <time>2019-03-24T08:42:17Z</time>
      </trkpt>
      <trkpt lat="43.45162" lon="5.8859">
        <ele>302.95</ele>
        <time>2019-03-24T08:42:35Z</time>
      </trkpt>
      <trkpt lat="43.45221" lon="5.88565">
        <ele>302.47</ele>
        <time>2019-03-24T08:42:50Z</time>
      </trkpt>
      <trkpt lat="43.45225" lon="5.88564">
        <ele>302.47</ele>
        <time>2019-03-24T08:42:51Z</time>
      </trkpt>
      <trkpt lat="43.45229" lon="5.88564">
        <ele>302.47</ele>
        <time>2019-03-24T08:42:52Z</time>
      </trkpt>
      <trkpt lat="43.45233" lon="5.88564">
        <ele>302.47</ele>
        <time>2019-03-24T08:42:53Z</time>
      </trkpt>
      <trkpt lat="43.45237" lon="5.88565">
        <ele>302.47</ele>
        <time>2019-03-24T08:42:54Z</time>
      </trkpt>
      <trkpt lat="43.45241" lon="5.88566">
        <ele>302.47</ele>
        <time>2019-03-24T08:42:55Z</time>
      </trkpt>
      <trkpt lat="43.45301" lon="5.88585">
        <ele>302.95</ele>
        <time>2019-03-24T08:43:12Z</time>
      </trkpt>
      <trkpt lat="43.45324" lon="5.88602">
        <ele>303.91</ele>
        <time>2019-03-24T08:43:20Z</time>
      </trkpt>
      <trkpt lat="43.45324" lon="5.88606">
        <ele>303.91</ele>
        <time>2019-03-24T08:43:21Z</time>
      </trkpt>
      <trkpt lat="43.45333" lon="5.88687">
        <ele>305.36</ele>
        <time>2019-03-24T08:43:39Z</time>
      </trkpt>
      <trkpt lat="43.4533" lon="5.8879">
        <ele>305.36</ele>
        <time>2019-03-24T08:43:57Z</time>
      </trkpt>
      <trkpt lat="43.45328" lon="5.88885">
        <ele>306.8</ele>
        <time>2019-03-24T08:44:15Z</time>
      </trkpt>
      <trkpt lat="43.4531" lon="5.88981">
        <ele>306.8</ele>
        <time>2019-03-24T08:44:34Z</time>
      </trkpt>
      <trkpt lat="43.45318" lon="5.89074">
        <ele>306.8</ele>
        <time>2019-03-24T08:44:52Z</time>
      </trkpt>
      <trkpt lat="43.4533" lon="5.89179">
        <ele>306.8</ele>
        <time>2019-03-24T08:45:11Z</time>
      </trkpt>
      <trkpt lat="43.45341" lon="5.89265">
        <ele>307.76</ele>
        <time>2019-03-24T08:45:27Z</time>
      </trkpt>
      <trkpt lat="43.45368" lon="5.89316">
        <ele>308.24</ele>
        <time>2019-03-24T08:45:40Z</time>
      </trkpt>
      <trkpt lat="43.45414" lon="5.8937">
        <ele>308.24</ele>
        <time>2019-03-24T08:45:57Z</time>
      </trkpt>
      <trkpt lat="43.45459" lon="5.89423">
        <ele>309.2</ele>
        <time>2019-03-24T08:46:14Z</time>
      </trkpt>
      <trkpt lat="43.45502" lon="5.89498">
        <ele>309.2</ele>
        <time>2019-03-24T08:46:30Z</time>
      </trkpt>
      <trkpt lat="43.45508" lon="5.89511">
        <ele>307.76</ele>
        <time>2019-03-24T08:46:32Z</time>
      </trkpt>
      <trkpt lat="43.4551" lon="5.89516">
        <ele>307.76</ele>
        <time>2019-03-24T08:46:33Z</time>
      </trkpt>
      <trkpt lat="43.45514" lon="5.89529">
        <ele>307.76</ele>
        <time>2019-03-24T08:46:35Z</time>
      </trkpt>
      <trkpt lat="43.45515" lon="5.89535">
        <ele>307.76</ele>
        <time>2019-03-24T08:46:36Z</time>
      </trkpt>
      <trkpt lat="43.45516" lon="5.89542">
        <ele>307.76</ele>
        <time>2019-03-24T08:46:37Z</time>
      </trkpt>
      <trkpt lat="43.45523" lon="5.89594">
        <ele>307.76</ele>
        <time>2019-03-24T08:46:45Z</time>
      </trkpt>
      <trkpt lat="43.45525" lon="5.896">
        <ele>307.76</ele>
        <time>2019-03-24T08:46:46Z</time>
      </trkpt>
      <trkpt lat="43.45533" lon="5.89618">
        <ele>306.32</ele>
        <time>2019-03-24T08:46:49Z</time>
      </trkpt>
      <trkpt lat="43.45535" lon="5.89624">
        <ele>306.32</ele>
        <time>2019-03-24T08:46:50Z</time>
      </trkpt>
      <trkpt lat="43.45545" lon="5.89648">
        <ele>304.88</ele>
        <time>2019-03-24T08:46:54Z</time>
      </trkpt>
      <trkpt lat="43.45551" lon="5.8967">
        <ele>304.39</ele>
        <time>2019-03-24T08:46:57Z</time>
      </trkpt>
      <trkpt lat="43.45552" lon="5.89679">
        <ele>304.39</ele>
        <time>2019-03-24T08:46:58Z</time>
      </trkpt>
      <trkpt lat="43.45553" lon="5.89687">
        <ele>304.39</ele>
        <time>2019-03-24T08:46:59Z</time>
      </trkpt>
      <trkpt lat="43.45555" lon="5.89711">
        <ele>304.39</ele>
        <time>2019-03-24T08:47:02Z</time>
      </trkpt>
      <trkpt lat="43.45557" lon="5.89718">
        <ele>304.39</ele>
        <time>2019-03-24T08:47:03Z</time>
      </trkpt>
      <trkpt lat="43.45559" lon="5.89725">
        <ele>304.39</ele>
        <time>2019-03-24T08:47:04Z</time>
      </trkpt>
      <trkpt lat="43.45562" lon="5.89732">
        <ele>303.91</ele>
        <time>2019-03-24T08:47:05Z</time>
      </trkpt>
      <trkpt lat="43.45566" lon="5.89739">
        <ele>303.91</ele>
        <time>2019-03-24T08:47:06Z</time>
      </trkpt>
      <trkpt lat="43.45569" lon="5.89745">
        <ele>303.91</ele>
        <time>2019-03-24T08:47:07Z</time>
      </trkpt>
      <trkpt lat="43.45608" lon="5.89817">
        <ele>302.47</ele>
        <time>2019-03-24T08:47:20Z</time>
      </trkpt>
      <trkpt lat="43.45607" lon="5.89821">
        <ele>302.47</ele>
        <time>2019-03-24T08:47:21Z</time>
      </trkpt>
      <trkpt lat="43.45604" lon="5.89825">
        <ele>302.47</ele>
        <time>2019-03-24T08:47:22Z</time>
      </trkpt>
      <trkpt lat="43.45601" lon="5.89827">
        <ele>302.47</ele>
        <time>2019-03-24T08:47:23Z</time>
      </trkpt>
      <trkpt lat="43.45598" lon="5.8983">
        <ele>302.47</ele>
        <time>2019-03-24T08:47:24Z</time>
      </trkpt>
      <trkpt lat="43.45533" lon="5.89873">
        <ele>302.47</ele>
        <time>2019-03-24T08:47:43Z</time>
      </trkpt>
      <trkpt lat="43.45518" lon="5.89911">
        <ele>303.91</ele>
        <time>2019-03-24T08:47:53Z</time>
      </trkpt>
      <trkpt lat="43.45517" lon="5.8996">
        <ele>305.36</ele>
        <time>2019-03-24T08:48:05Z</time>
      </trkpt>
      <trkpt lat="43.4551" lon="5.8999">
        <ele>305.84</ele>
        <time>2019-03-24T08:48:14Z</time>
      </trkpt>
      <trkpt lat="43.4551" lon="5.89992">
        <ele>305.84</ele>
        <time>2019-03-24T08:48:15Z</time>
      </trkpt>
      <trkpt lat="43.45509" lon="5.89995">
        <ele>305.84</ele>
        <time>2019-03-24T08:48:16Z</time>
      </trkpt>
      <trkpt lat="43.45508" lon="5.89997">
        <ele>305.84</ele>
        <time>2019-03-24T08:48:17Z</time>
      </trkpt>
      <trkpt lat="43.45508" lon="5.90001">
        <ele>305.84</ele>
        <time>2019-03-24T08:48:18Z</time>
      </trkpt>
      <trkpt lat="43.45508" lon="5.90004">
        <ele>305.84</ele>
        <time>2019-03-24T08:48:19Z</time>
      </trkpt>
      <trkpt lat="43.45507" lon="5.90007">
        <ele>305.84</ele>
        <time>2019-03-24T08:48:20Z</time>
      </trkpt>
      <trkpt lat="43.45506" lon="5.9001">
        <ele>305.84</ele>
        <time>2019-03-24T08:48:21Z</time>
      </trkpt>
      <trkpt lat="43.455" lon="5.90025">
        <ele>305.84</ele>
        <time>2019-03-24T08:48:26Z</time>
      </trkpt>
      <trkpt lat="43.45497" lon="5.90026">
        <ele>304.88</ele>
        <time>2019-03-24T08:48:27Z</time>
      </trkpt>
      <trkpt lat="43.45493" lon="5.90026">
        <ele>304.88</ele>
        <time>2019-03-24T08:48:28Z</time>
      </trkpt>
      <trkpt lat="43.45488" lon="5.90025">
        <ele>304.39</ele>
        <time>2019-03-24T08:48:29Z</time>
      </trkpt>
      <trkpt lat="43.45484" lon="5.90023">
        <ele>304.39</ele>
        <time>2019-03-24T08:48:30Z</time>
      </trkpt>
      <trkpt lat="43.4543" lon="5.89999">
        <ele>303.91</ele>
        <time>2019-03-24T08:48:44Z</time>
      </trkpt>
      <trkpt lat="43.45379" lon="5.89972">
        <ele>303.91</ele>
        <time>2019-03-24T08:49:01Z</time>
      </trkpt>
      <trkpt lat="43.45334" lon="5.89948">
        <ele>306.8</ele>
        <time>2019-03-24T08:49:17Z</time>
      </trkpt>
      <trkpt lat="43.45301" lon="5.89946">
        <ele>307.76</ele>
        <time>2019-03-24T08:49:30Z</time>
      </trkpt>
      <trkpt lat="43.45251" lon="5.89964">
        <ele>307.76</ele>
        <time>2019-03-24T08:49:43Z</time>
      </trkpt>
      <trkpt lat="43.45216" lon="5.90032">
        <ele>306.8</ele>
        <time>2019-03-24T08:49:59Z</time>
      </trkpt>
      <trkpt lat="43.45201" lon="5.90068">
        <ele>308.24</ele>
        <time>2019-03-24T08:50:09Z</time>
      </trkpt>
      <trkpt lat="43.45182" lon="5.90124">
        <ele>311.6</ele>
        <time>2019-03-24T08:50:24Z</time>
      </trkpt>
      <trkpt lat="43.45158" lon="5.90146">
        <ele>314.49</ele>
        <time>2019-03-24T08:50:36Z</time>
      </trkpt>
      <trkpt lat="43.45122" lon="5.9013">
        <ele>316.89</ele>
        <time>2019-03-24T08:50:52Z</time>
      </trkpt>
      <trkpt lat="43.45095" lon="5.90128">
        <ele>318.33</ele>
        <time>2019-03-24T08:51:04Z</time>
      </trkpt>
      <trkpt lat="43.45063" lon="5.90163">
        <ele>319.78</ele>
        <time>2019-03-24T08:51:19Z</time>
      </trkpt>
      <trkpt lat="43.45047" lon="5.90207">
        <ele>322.18</ele>
        <time>2019-03-24T08:51:34Z</time>
      </trkpt>
      <trkpt lat="43.45045" lon="5.9026">
        <ele>324.58</ele>
        <time>2019-03-24T08:51:50Z</time>
      </trkpt>
      <trkpt lat="43.45056" lon="5.90303">
        <ele>326.99</ele>
        <time>2019-03-24T08:52:06Z</time>
      </trkpt>
      <trkpt lat="43.45066" lon="5.90345">
        <ele>327.95</ele>
        <time>2019-03-24T08:52:20Z</time>
      </trkpt>
      <trkpt lat="43.45052" lon="5.90383">
        <ele>328.91</ele>
        <time>2019-03-24T08:52:30Z</time>
      </trkpt>
      <trkpt lat="43.45071" lon="5.90426">
        <ele>329.87</ele>
        <time>2019-03-24T08:52:41Z</time>
      </trkpt>
      <trkpt lat="43.45112" lon="5.90485">
        <ele>328.43</ele>
        <time>2019-03-24T08:52:58Z</time>
      </trkpt>
      <trkpt lat="43.4515" lon="5.90545">
        <ele>326.5</ele>
        <time>2019-03-24T08:53:11Z</time>
      </trkpt>
      <trkpt lat="43.45153" lon="5.90549">
        <ele>326.5</ele>
        <time>2019-03-24T08:53:12Z</time>
      </trkpt>
      <trkpt lat="43.45156" lon="5.90553">
        <ele>326.02</ele>
        <time>2019-03-24T08:53:13Z</time>
      </trkpt>
      <trkpt lat="43.4516" lon="5.90557">
        <ele>326.02</ele>
        <time>2019-03-24T08:53:14Z</time>
      </trkpt>
      <trkpt lat="43.45163" lon="5.90561">
        <ele>325.54</ele>
        <time>2019-03-24T08:53:15Z</time>
      </trkpt>
      <trkpt lat="43.45198" lon="5.90598">
        <ele>322.18</ele>
        <time>2019-03-24T08:53:24Z</time>
      </trkpt>
      <trkpt lat="43.45208" lon="5.90613">
        <ele>321.7</ele>
        <time>2019-03-24T08:53:27Z</time>
      </trkpt>
      <trkpt lat="43.45215" lon="5.90622">
        <ele>321.22</ele>
        <time>2019-03-24T08:53:29Z</time>
      </trkpt>
      <trkpt lat="43.45228" lon="5.90642">
        <ele>320.26</ele>
        <time>2019-03-24T08:53:33Z</time>
      </trkpt>
      <trkpt lat="43.45231" lon="5.90647">
        <ele>319.78</ele>
        <time>2019-03-24T08:53:34Z</time>
      </trkpt>
      <trkpt lat="43.45232" lon="5.90653">
        <ele>319.78</ele>
        <time>2019-03-24T08:53:35Z</time>
      </trkpt>
      <trkpt lat="43.45233" lon="5.90659">
        <ele>319.78</ele>
        <time>2019-03-24T08:53:36Z</time>
      </trkpt>
      <trkpt lat="43.45234" lon="5.90665">
        <ele>319.78</ele>
        <time>2019-03-24T08:53:37Z</time>
      </trkpt>
      <trkpt lat="43.45233" lon="5.9067">
        <ele>319.3</ele>
        <time>2019-03-24T08:53:38Z</time>
      </trkpt>
      <trkpt lat="43.45232" lon="5.90676">
        <ele>319.3</ele>
        <time>2019-03-24T08:53:39Z</time>
      </trkpt>
      <trkpt lat="43.4523" lon="5.90681">
        <ele>319.3</ele>
        <time>2019-03-24T08:53:40Z</time>
      </trkpt>
      <trkpt lat="43.45228" lon="5.90686">
        <ele>319.3</ele>
        <time>2019-03-24T08:53:41Z</time>
      </trkpt>
      <trkpt lat="43.45226" lon="5.90691">
        <ele>319.3</ele>
        <time>2019-03-24T08:53:42Z</time>
      </trkpt>
      <trkpt lat="43.45209" lon="5.90719">
        <ele>317.37</ele>
        <time>2019-03-24T08:53:48Z</time>
      </trkpt>
      <trkpt lat="43.45205" lon="5.90723">
        <ele>316.89</ele>
        <time>2019-03-24T08:53:49Z</time>
      </trkpt>
      <trkpt lat="43.45202" lon="5.90726">
        <ele>316.89</ele>
        <time>2019-03-24T08:53:50Z</time>
      </trkpt>
      <trkpt lat="43.45189" lon="5.90737">
        <ele>316.41</ele>
        <time>2019-03-24T08:53:53Z</time>
      </trkpt>
      <trkpt lat="43.4518" lon="5.90741">
        <ele>314.97</ele>
        <time>2019-03-24T08:53:55Z</time>
      </trkpt>
      <trkpt lat="43.45176" lon="5.90742">
        <ele>314.97</ele>
        <time>2019-03-24T08:53:56Z</time>
      </trkpt>
      <trkpt lat="43.4517" lon="5.90742">
        <ele>314.49</ele>
        <time>2019-03-24T08:53:57Z</time>
      </trkpt>
      <trkpt lat="43.45166" lon="5.90742">
        <ele>314.49</ele>
        <time>2019-03-24T08:53:58Z</time>
      </trkpt>
      <trkpt lat="43.45161" lon="5.90741">
        <ele>313.53</ele>
        <time>2019-03-24T08:53:59Z</time>
      </trkpt>
      <trkpt lat="43.45112" lon="5.90731">
        <ele>311.12</ele>
        <time>2019-03-24T08:54:09Z</time>
      </trkpt>
      <trkpt lat="43.45104" lon="5.90728">
        <ele>310.64</ele>
        <time>2019-03-24T08:54:11Z</time>
      </trkpt>
      <trkpt lat="43.451" lon="5.90728">
        <ele>309.68</ele>
        <time>2019-03-24T08:54:12Z</time>
      </trkpt>
      <trkpt lat="43.45095" lon="5.90728">
        <ele>309.68</ele>
        <time>2019-03-24T08:54:13Z</time>
      </trkpt>
      <trkpt lat="43.45091" lon="5.90729">
        <ele>309.68</ele>
        <time>2019-03-24T08:54:14Z</time>
      </trkpt>
      <trkpt lat="43.45087" lon="5.9073">
        <ele>309.2</ele>
        <time>2019-03-24T08:54:15Z</time>
      </trkpt>
      <trkpt lat="43.4507" lon="5.90732">
        <ele>308.24</ele>
        <time>2019-03-24T08:54:19Z</time>
      </trkpt>
      <trkpt lat="43.45066" lon="5.90731">
        <ele>308.24</ele>
        <time>2019-03-24T08:54:20Z</time>
      </trkpt>
      <trkpt lat="43.45031" lon="5.90713">
        <ele>305.84</ele>
        <time>2019-03-24T08:54:26Z</time>
      </trkpt>
      <trkpt lat="43.45022" lon="5.90706">
        <ele>305.36</ele>
        <time>2019-03-24T08:54:28Z</time>
      </trkpt>
      <trkpt lat="43.45018" lon="5.90703">
        <ele>304.88</ele>
        <time>2019-03-24T08:54:29Z</time>
      </trkpt>
      <trkpt lat="43.45015" lon="5.90699">
        <ele>304.39</ele>
        <time>2019-03-24T08:54:30Z</time>
      </trkpt>
      <trkpt lat="43.45012" lon="5.90694">
        <ele>304.39</ele>
        <time>2019-03-24T08:54:31Z</time>
      </trkpt>
      <trkpt lat="43.45009" lon="5.9069">
        <ele>303.91</ele>
        <time>2019-03-24T08:54:32Z</time>
      </trkpt>
      <trkpt lat="43.45007" lon="5.90685">
        <ele>303.91</ele>
        <time>2019-03-24T08:54:33Z</time>
      </trkpt>
      <trkpt lat="43.45005" lon="5.90679">
        <ele>303.43</ele>
        <time>2019-03-24T08:54:34Z</time>
      </trkpt>
      <trkpt lat="43.45003" lon="5.90673">
        <ele>302.47</ele>
        <time>2019-03-24T08:54:35Z</time>
      </trkpt>
      <trkpt lat="43.44994" lon="5.90652">
        <ele>301.51</ele>
        <time>2019-03-24T08:54:39Z</time>
      </trkpt>
      <trkpt lat="43.44991" lon="5.90648">
        <ele>301.03</ele>
        <time>2019-03-24T08:54:40Z</time>
      </trkpt>
      <trkpt lat="43.44988" lon="5.90646">
        <ele>301.03</ele>
        <time>2019-03-24T08:54:41Z</time>
      </trkpt>
      <trkpt lat="43.44959" lon="5.90622">
        <ele>298.15</ele>
        <time>2019-03-24T08:54:49Z</time>
      </trkpt>
      <trkpt lat="43.44953" lon="5.90616">
        <ele>297.67</ele>
        <time>2019-03-24T08:54:51Z</time>
      </trkpt>
      <trkpt lat="43.44937" lon="5.90604">
        <ele>296.22</ele>
        <time>2019-03-24T08:54:55Z</time>
      </trkpt>
      <trkpt lat="43.44932" lon="5.90601">
        <ele>295.74</ele>
        <time>2019-03-24T08:54:56Z</time>
      </trkpt>
      <trkpt lat="43.44907" lon="5.90587">
        <ele>294.3</ele>
        <time>2019-03-24T08:55:01Z</time>
      </trkpt>
      <trkpt lat="43.44891" lon="5.90579">
        <ele>292.38</ele>
        <time>2019-03-24T08:55:06Z</time>
      </trkpt>
      <trkpt lat="43.44887" lon="5.90583">
        <ele>291.42</ele>
        <time>2019-03-24T08:55:09Z</time>
      </trkpt>
      <trkpt lat="43.44888" lon="5.90585">
        <ele>290.94</ele>
        <time>2019-03-24T08:55:10Z</time>
      </trkpt>
      <trkpt lat="43.4489" lon="5.90586">
        <ele>290.94</ele>
        <time>2019-03-24T08:55:11Z</time>
      </trkpt>
      <trkpt lat="43.44891" lon="5.90588">
        <ele>290.46</ele>
        <time>2019-03-24T08:55:12Z</time>
      </trkpt>
      <trkpt lat="43.44901" lon="5.906">
        <ele>289.49</ele>
        <time>2019-03-24T08:55:17Z</time>
      </trkpt>
      <trkpt lat="43.44904" lon="5.90603">
        <ele>289.01</ele>
        <time>2019-03-24T08:55:18Z</time>
      </trkpt>
      <trkpt lat="43.44911" lon="5.90612">
        <ele>289.01</ele>
        <time>2019-03-24T08:55:20Z</time>
      </trkpt>
      <trkpt lat="43.44947" lon="5.90678">
        <ele>287.57</ele>
        <time>2019-03-24T08:55:34Z</time>
      </trkpt>
      <trkpt lat="43.44975" lon="5.90722">
        <ele>287.09</ele>
        <time>2019-03-24T08:55:46Z</time>
      </trkpt>
      <trkpt lat="43.44976" lon="5.90737">
        <ele>287.09</ele>
        <time>2019-03-24T08:55:50Z</time>
      </trkpt>
      <trkpt lat="43.44975" lon="5.9074">
        <ele>287.09</ele>
        <time>2019-03-24T08:55:51Z</time>
      </trkpt>
      <trkpt lat="43.44949" lon="5.90779">
        <ele>287.57</ele>
        <time>2019-03-24T08:56:04Z</time>
      </trkpt>
      <trkpt lat="43.44914" lon="5.90829">
        <ele>287.57</ele>
        <time>2019-03-24T08:56:21Z</time>
      </trkpt>
      <trkpt lat="43.44907" lon="5.90844">
        <ele>287.57</ele>
        <time>2019-03-24T08:56:34Z</time>
      </trkpt>
      <trkpt lat="43.44902" lon="5.90855">
        <ele>287.57</ele>
        <time>2019-03-24T08:56:47Z</time>
      </trkpt>
      <trkpt lat="43.44904" lon="5.90854">
        <ele>287.57</ele>
        <time>2019-03-24T08:56:52Z</time>
      </trkpt>
      <trkpt lat="43.44904" lon="5.90853">
        <ele>287.57</ele>
        <time>2019-03-24T08:56:53Z</time>
      </trkpt>
      <trkpt lat="43.44905" lon="5.90852">
        <ele>287.57</ele>
        <time>2019-03-24T08:56:54Z</time>
      </trkpt>
      <trkpt lat="43.44908" lon="5.9085">
        <ele>287.57</ele>
        <time>2019-03-24T08:57:11Z</time>
      </trkpt>
      <trkpt lat="43.44923" lon="5.90829">
        <ele>287.57</ele>
        <time>2019-03-24T08:57:24Z</time>
      </trkpt>
      <trkpt lat="43.44954" lon="5.90787">
        <ele>288.05</ele>
        <time>2019-03-24T08:57:41Z</time>
      </trkpt>
      <trkpt lat="43.44985" lon="5.90739">
        <ele>288.05</ele>
        <time>2019-03-24T08:57:58Z</time>
      </trkpt>
      <trkpt lat="43.44963" lon="5.90708">
        <ele>288.05</ele>
        <time>2019-03-24T08:58:11Z</time>
      </trkpt>
      <trkpt lat="43.44942" lon="5.90666">
        <ele>288.05</ele>
        <time>2019-03-24T08:58:25Z</time>
      </trkpt>
      <trkpt lat="43.44916" lon="5.90622">
        <ele>289.49</ele>
        <time>2019-03-24T08:58:41Z</time>
      </trkpt>
      <trkpt lat="43.44886" lon="5.90584">
        <ele>291.9</ele>
        <time>2019-03-24T08:58:58Z</time>
      </trkpt>
      <trkpt lat="43.44879" lon="5.90572">
        <ele>293.34</ele>
        <time>2019-03-24T08:59:03Z</time>
      </trkpt>
      <trkpt lat="43.4488" lon="5.90566">
        <ele>293.82</ele>
        <time>2019-03-24T08:59:06Z</time>
      </trkpt>
      <trkpt lat="43.44883" lon="5.90565">
        <ele>294.3</ele>
        <time>2019-03-24T08:59:08Z</time>
      </trkpt>
      <trkpt lat="43.44885" lon="5.90565">
        <ele>294.3</ele>
        <time>2019-03-24T08:59:09Z</time>
      </trkpt>
      <trkpt lat="43.44887" lon="5.90566">
        <ele>294.3</ele>
        <time>2019-03-24T08:59:10Z</time>
      </trkpt>
      <trkpt lat="43.44889" lon="5.90566">
        <ele>294.78</ele>
        <time>2019-03-24T08:59:11Z</time>
      </trkpt>
      <trkpt lat="43.44917" lon="5.90578">
        <ele>297.67</ele>
        <time>2019-03-24T08:59:27Z</time>
      </trkpt>
      <trkpt lat="43.44941" lon="5.90597">
        <ele>299.59</ele>
        <time>2019-03-24T08:59:40Z</time>
      </trkpt>
      <trkpt lat="43.44973" lon="5.90629">
        <ele>303.43</ele>
        <time>2019-03-24T08:59:57Z</time>
      </trkpt>
      <trkpt lat="43.44993" lon="5.90671">
        <ele>306.32</ele>
        <time>2019-03-24T09:00:13Z</time>
      </trkpt>
      <trkpt lat="43.4502" lon="5.90706">
        <ele>309.68</ele>
        <time>2019-03-24T09:00:28Z</time>
      </trkpt>
      <trkpt lat="43.45057" lon="5.90721">
        <ele>311.6</ele>
        <time>2019-03-24T09:00:44Z</time>
      </trkpt>
      <trkpt lat="43.45091" lon="5.9073">
        <ele>314.01</ele>
        <time>2019-03-24T09:00:59Z</time>
      </trkpt>
      <trkpt lat="43.4513" lon="5.90743">
        <ele>316.89</ele>
        <time>2019-03-24T09:01:14Z</time>
      </trkpt>
      <trkpt lat="43.45158" lon="5.90746">
        <ele>318.81</ele>
        <time>2019-03-24T09:01:28Z</time>
      </trkpt>
      <trkpt lat="43.4519" lon="5.90728">
        <ele>321.7</ele>
        <time>2019-03-24T09:01:43Z</time>
      </trkpt>
      <trkpt lat="43.45217" lon="5.90698">
        <ele>324.1</ele>
        <time>2019-03-24T09:01:58Z</time>
      </trkpt>
      <trkpt lat="43.45224" lon="5.90662">
        <ele>325.06</ele>
        <time>2019-03-24T09:02:12Z</time>
      </trkpt>
      <trkpt lat="43.45206" lon="5.90604">
        <ele>328.43</ele>
        <time>2019-03-24T09:02:29Z</time>
      </trkpt>
      <trkpt lat="43.45174" lon="5.90572">
        <ele>330.83</ele>
        <time>2019-03-24T09:02:44Z</time>
      </trkpt>
      <trkpt lat="43.4515" lon="5.90536">
        <ele>332.75</ele>
        <time>2019-03-24T09:02:59Z</time>
      </trkpt>
      <trkpt lat="43.45123" lon="5.90498">
        <ele>334.2</ele>
        <time>2019-03-24T09:03:14Z</time>
      </trkpt>
      <trkpt lat="43.45088" lon="5.90448">
        <ele>336.6</ele>
        <time>2019-03-24T09:03:33Z</time>
      </trkpt>
      <trkpt lat="43.45069" lon="5.90413">
        <ele>336.6</ele>
        <time>2019-03-24T09:03:46Z</time>
      </trkpt>
      <trkpt lat="43.45072" lon="5.90407">
        <ele>336.6</ele>
        <time>2019-03-24T09:03:48Z</time>
      </trkpt>
      <trkpt lat="43.45079" lon="5.90362">
        <ele>335.16</ele>
        <time>2019-03-24T09:03:59Z</time>
      </trkpt>
      <trkpt lat="43.45055" lon="5.90324">
        <ele>333.23</ele>
        <time>2019-03-24T09:04:11Z</time>
      </trkpt>
      <trkpt lat="43.45042" lon="5.90288">
        <ele>331.31</ele>
        <time>2019-03-24T09:04:22Z</time>
      </trkpt>
      <trkpt lat="43.45044" lon="5.90253">
        <ele>330.35</ele>
        <time>2019-03-24T09:04:35Z</time>
      </trkpt>
      <trkpt lat="43.45044" lon="5.90245">
        <ele>330.35</ele>
        <time>2019-03-24T09:04:46Z</time>
      </trkpt>
      <trkpt lat="43.45041" lon="5.90277">
        <ele>332.27</ele>
        <time>2019-03-24T09:05:02Z</time>
      </trkpt>
      <trkpt lat="43.45052" lon="5.9031">
        <ele>334.2</ele>
        <time>2019-03-24T09:05:17Z</time>
      </trkpt>
      <trkpt lat="43.45067" lon="5.90344">
        <ele>335.64</ele>
        <time>2019-03-24T09:05:30Z</time>
      </trkpt>
      <trkpt lat="43.45057" lon="5.90382">
        <ele>336.12</ele>
        <time>2019-03-24T09:05:40Z</time>
      </trkpt>
      <trkpt lat="43.4505" lon="5.90393">
        <ele>336.12</ele>
        <time>2019-03-24T09:05:45Z</time>
      </trkpt>
      <trkpt lat="43.45049" lon="5.90393">
        <ele>336.12</ele>
        <time>2019-03-24T09:05:46Z</time>
      </trkpt>
      <trkpt lat="43.45048" lon="5.90394">
        <ele>336.12</ele>
        <time>2019-03-24T09:05:47Z</time>
      </trkpt>
      <trkpt lat="43.45047" lon="5.90393">
        <ele>336.12</ele>
        <time>2019-03-24T09:05:48Z</time>
      </trkpt>
      <trkpt lat="43.4505" lon="5.90386">
        <ele>336.12</ele>
        <time>2019-03-24T09:05:52Z</time>
      </trkpt>
      <trkpt lat="43.45055" lon="5.90381">
        <ele>334.68</ele>
        <time>2019-03-24T09:05:54Z</time>
      </trkpt>
      <trkpt lat="43.45074" lon="5.90361">
        <ele>334.2</ele>
        <time>2019-03-24T09:06:07Z</time>
      </trkpt>
      <trkpt lat="43.45074" lon="5.9036">
        <ele>334.2</ele>
        <time>2019-03-24T09:06:14Z</time>
      </trkpt>
      <trkpt lat="43.45073" lon="5.90359">
        <ele>334.2</ele>
        <time>2019-03-24T09:06:15Z</time>
      </trkpt>
      <trkpt lat="43.45072" lon="5.90358">
        <ele>334.2</ele>
        <time>2019-03-24T09:06:16Z</time>
      </trkpt>
      <trkpt lat="43.45071" lon="5.90357">
        <ele>334.2</ele>
        <time>2019-03-24T09:06:17Z</time>
      </trkpt>
      <trkpt lat="43.4507" lon="5.90356">
        <ele>334.2</ele>
        <time>2019-03-24T09:06:18Z</time>
      </trkpt>
      <trkpt lat="43.45069" lon="5.90355">
        <ele>334.2</ele>
        <time>2019-03-24T09:06:19Z</time>
      </trkpt>
      <trkpt lat="43.45068" lon="5.90354">
        <ele>334.2</ele>
        <time>2019-03-24T09:06:20Z</time>
      </trkpt>
      <trkpt lat="43.45053" lon="5.90336">
        <ele>332.27</ele>
        <time>2019-03-24T09:06:36Z</time>
      </trkpt>
      <trkpt lat="43.4505" lon="5.90333">
        <ele>332.27</ele>
        <time>2019-03-24T09:06:39Z</time>
      </trkpt>
      <trkpt lat="43.45046" lon="5.90325">
        <ele>331.79</ele>
        <time>2019-03-24T09:06:45Z</time>
      </trkpt>
      <trkpt lat="43.45045" lon="5.90323">
        <ele>331.79</ele>
        <time>2019-03-24T09:06:46Z</time>
      </trkpt>
      <trkpt lat="43.45037" lon="5.90306">
        <ele>330.83</ele>
        <time>2019-03-24T09:06:58Z</time>
      </trkpt>
      <trkpt lat="43.4503" lon="5.90299">
        <ele>330.35</ele>
        <time>2019-03-24T09:07:15Z</time>
      </trkpt>
      <trkpt lat="43.45031" lon="5.90298">
        <ele>330.35</ele>
        <time>2019-03-24T09:07:19Z</time>
      </trkpt>
      <trkpt lat="43.45013" lon="5.90305">
        <ele>330.35</ele>
        <time>2019-03-24T09:07:28Z</time>
      </trkpt>
      <trkpt lat="43.45009" lon="5.90306">
        <ele>330.35</ele>
        <time>2019-03-24T09:07:32Z</time>
      </trkpt>
      <trkpt lat="43.45007" lon="5.90305">
        <ele>330.35</ele>
        <time>2019-03-24T09:07:34Z</time>
      </trkpt>
      <trkpt lat="43.45004" lon="5.90294">
        <ele>328.91</ele>
        <time>2019-03-24T09:07:39Z</time>
      </trkpt>
      <trkpt lat="43.45003" lon="5.90291">
        <ele>328.91</ele>
        <time>2019-03-24T09:07:40Z</time>
      </trkpt>
      <trkpt lat="43.44985" lon="5.90246">
        <ele>326.02</ele>
        <time>2019-03-24T09:07:54Z</time>
      </trkpt>
      <trkpt lat="43.44977" lon="5.90212">
        <ele>324.1</ele>
        <time>2019-03-24T09:08:04Z</time>
      </trkpt>
      <trkpt lat="43.44975" lon="5.90204">
        <ele>324.1</ele>
        <time>2019-03-24T09:08:11Z</time>
      </trkpt>
      <trkpt lat="43.44976" lon="5.90201">
        <ele>323.62</ele>
        <time>2019-03-24T09:08:13Z</time>
      </trkpt>
      <trkpt lat="43.44977" lon="5.90181">
        <ele>321.7</ele>
        <time>2019-03-24T09:08:21Z</time>
      </trkpt>
      <trkpt lat="43.44959" lon="5.90129">
        <ele>320.26</ele>
        <time>2019-03-24T09:08:37Z</time>
      </trkpt>
      <trkpt lat="43.44955" lon="5.90115">
        <ele>319.78</ele>
        <time>2019-03-24T09:08:42Z</time>
      </trkpt>
      <trkpt lat="43.44957" lon="5.90107">
        <ele>319.78</ele>
        <time>2019-03-24T09:08:46Z</time>
      </trkpt>
      <trkpt lat="43.44972" lon="5.90083">
        <ele>319.3</ele>
        <time>2019-03-24T09:09:00Z</time>
      </trkpt>
      <trkpt lat="43.44981" lon="5.90074">
        <ele>319.3</ele>
        <time>2019-03-24T09:09:06Z</time>
      </trkpt>
      <trkpt lat="43.4498" lon="5.90062">
        <ele>319.3</ele>
        <time>2019-03-24T09:09:11Z</time>
      </trkpt>
      <trkpt lat="43.44966" lon="5.90017">
        <ele>318.33</ele>
        <time>2019-03-24T09:09:29Z</time>
      </trkpt>
      <trkpt lat="43.44964" lon="5.90012">
        <ele>318.33</ele>
        <time>2019-03-24T09:09:37Z</time>
      </trkpt>
      <trkpt lat="43.44969" lon="5.90001">
        <ele>318.33</ele>
        <time>2019-03-24T09:09:42Z</time>
      </trkpt>
      <trkpt lat="43.44974" lon="5.89992">
        <ele>318.33</ele>
        <time>2019-03-24T09:09:46Z</time>
      </trkpt>
      <trkpt lat="43.44973" lon="5.89952">
        <ele>318.33</ele>
        <time>2019-03-24T09:10:01Z</time>
      </trkpt>
      <trkpt lat="43.4497" lon="5.89946">
        <ele>318.33</ele>
        <time>2019-03-24T09:10:04Z</time>
      </trkpt>
      <trkpt lat="43.44947" lon="5.89939">
        <ele>318.33</ele>
        <time>2019-03-24T09:10:18Z</time>
      </trkpt>
      <trkpt lat="43.44912" lon="5.89941">
        <ele>319.3</ele>
        <time>2019-03-24T09:10:36Z</time>
      </trkpt>
      <trkpt lat="43.44876" lon="5.89945">
        <ele>320.74</ele>
        <time>2019-03-24T09:10:54Z</time>
      </trkpt>
      <trkpt lat="43.44875" lon="5.89941">
        <ele>320.74</ele>
        <time>2019-03-24T09:10:56Z</time>
      </trkpt>
      <trkpt lat="43.44875" lon="5.89938">
        <ele>320.74</ele>
        <time>2019-03-24T09:10:57Z</time>
      </trkpt>
      <trkpt lat="43.44874" lon="5.89935">
        <ele>320.74</ele>
        <time>2019-03-24T09:10:58Z</time>
      </trkpt>
      <trkpt lat="43.44874" lon="5.89932">
        <ele>320.74</ele>
        <time>2019-03-24T09:10:59Z</time>
      </trkpt>
      <trkpt lat="43.44873" lon="5.89929">
        <ele>320.74</ele>
        <time>2019-03-24T09:11:00Z</time>
      </trkpt>
      <trkpt lat="43.44873" lon="5.89926">
        <ele>320.74</ele>
        <time>2019-03-24T09:11:01Z</time>
      </trkpt>
      <trkpt lat="43.44872" lon="5.89924">
        <ele>320.74</ele>
        <time>2019-03-24T09:11:02Z</time>
      </trkpt>
      <trkpt lat="43.44855" lon="5.89875">
        <ele>321.7</ele>
        <time>2019-03-24T09:11:20Z</time>
      </trkpt>
      <trkpt lat="43.44845" lon="5.89846">
        <ele>325.06</ele>
        <time>2019-03-24T09:11:33Z</time>
      </trkpt>
      <trkpt lat="43.44831" lon="5.89815">
        <ele>325.06</ele>
        <time>2019-03-24T09:11:49Z</time>
      </trkpt>
      <trkpt lat="43.44814" lon="5.89786">
        <ele>326.02</ele>
        <time>2019-03-24T09:12:04Z</time>
      </trkpt>
      <trkpt lat="43.44784" lon="5.89751">
        <ele>327.47</ele>
        <time>2019-03-24T09:12:21Z</time>
      </trkpt>
      <trkpt lat="43.44768" lon="5.8972">
        <ele>329.39</ele>
        <time>2019-03-24T09:12:37Z</time>
      </trkpt>
      <trkpt lat="43.44755" lon="5.89689">
        <ele>331.31</ele>
        <time>2019-03-24T09:12:49Z</time>
      </trkpt>
      <trkpt lat="43.4474" lon="5.89651">
        <ele>333.23</ele>
        <time>2019-03-24T09:13:04Z</time>
      </trkpt>
      <trkpt lat="43.44729" lon="5.89633">
        <ele>334.2</ele>
        <time>2019-03-24T09:13:14Z</time>
      </trkpt>
      <trkpt lat="43.44727" lon="5.89633">
        <ele>334.2</ele>
        <time>2019-03-24T09:13:15Z</time>
      </trkpt>
      <trkpt lat="43.44723" lon="5.89634">
        <ele>334.68</ele>
        <time>2019-03-24T09:13:21Z</time>
      </trkpt>
      <trkpt lat="43.44709" lon="5.89659">
        <ele>334.68</ele>
        <time>2019-03-24T09:13:34Z</time>
      </trkpt>
      <trkpt lat="43.44689" lon="5.89692">
        <ele>335.16</ele>
        <time>2019-03-24T09:13:47Z</time>
      </trkpt>
      <trkpt lat="43.44677" lon="5.89706">
        <ele>335.16</ele>
        <time>2019-03-24T09:14:02Z</time>
      </trkpt>
      <trkpt lat="43.44676" lon="5.89708">
        <ele>335.16</ele>
        <time>2019-03-24T09:14:06Z</time>
      </trkpt>
      <trkpt lat="43.44675" lon="5.89712">
        <ele>335.16</ele>
        <time>2019-03-24T09:14:07Z</time>
      </trkpt>
      <trkpt lat="43.44674" lon="5.89715">
        <ele>335.64</ele>
        <time>2019-03-24T09:14:08Z</time>
      </trkpt>
      <trkpt lat="43.44674" lon="5.89718">
        <ele>335.64</ele>
        <time>2019-03-24T09:14:09Z</time>
      </trkpt>
      <trkpt lat="43.44674" lon="5.89721">
        <ele>335.64</ele>
        <time>2019-03-24T09:14:10Z</time>
      </trkpt>
      <trkpt lat="43.44674" lon="5.89724">
        <ele>335.64</ele>
        <time>2019-03-24T09:14:11Z</time>
      </trkpt>
      <trkpt lat="43.44675" lon="5.89726">
        <ele>336.12</ele>
        <time>2019-03-24T09:14:12Z</time>
      </trkpt>
      <trkpt lat="43.44676" lon="5.89729">
        <ele>336.12</ele>
        <time>2019-03-24T09:14:13Z</time>
      </trkpt>
      <trkpt lat="43.44692" lon="5.89773">
        <ele>338.52</ele>
        <time>2019-03-24T09:14:30Z</time>
      </trkpt>
      <trkpt lat="43.44718" lon="5.89829">
        <ele>340.44</ele>
        <time>2019-03-24T09:14:49Z</time>
      </trkpt>
      <trkpt lat="43.44745" lon="5.89893">
        <ele>341.89</ele>
        <time>2019-03-24T09:15:10Z</time>
      </trkpt>
      <trkpt lat="43.44735" lon="5.89938">
        <ele>343.33</ele>
        <time>2019-03-24T09:15:24Z</time>
      </trkpt>
      <trkpt lat="43.44712" lon="5.8998">
        <ele>347.17</ele>
        <time>2019-03-24T09:15:40Z</time>
      </trkpt>
      <trkpt lat="43.44692" lon="5.90011">
        <ele>350.54</ele>
        <time>2019-03-24T09:15:54Z</time>
      </trkpt>
      <trkpt lat="43.44675" lon="5.90004">
        <ele>350.06</ele>
        <time>2019-03-24T09:16:08Z</time>
      </trkpt>
      <trkpt lat="43.44675" lon="5.90005">
        <ele>349.1</ele>
        <time>2019-03-24T09:16:39Z</time>
      </trkpt>
      <trkpt lat="43.44671" lon="5.90004">
        <ele>348.62</ele>
        <time>2019-03-24T09:17:18Z</time>
      </trkpt>
      <trkpt lat="43.4467" lon="5.90004">
        <ele>348.62</ele>
        <time>2019-03-24T09:17:44Z</time>
      </trkpt>
      <trkpt lat="43.44662" lon="5.89994">
        <ele>348.13</ele>
        <time>2019-03-24T09:17:55Z</time>
      </trkpt>
      <trkpt lat="43.44664" lon="5.89994">
        <ele>348.13</ele>
        <time>2019-03-24T09:18:14Z</time>
      </trkpt>
      <trkpt lat="43.44665" lon="5.89997">
        <ele>348.13</ele>
        <time>2019-03-24T09:18:43Z</time>
      </trkpt>
      <trkpt lat="43.44663" lon="5.89995">
        <ele>348.13</ele>
        <time>2019-03-24T09:18:59Z</time>
      </trkpt>
      <trkpt lat="43.44664" lon="5.89995">
        <ele>348.13</ele>
        <time>2019-03-24T09:19:03Z</time>
      </trkpt>
      <trkpt lat="43.44665" lon="5.89997">
        <ele>348.13</ele>
        <time>2019-03-24T09:19:04Z</time>
      </trkpt>
      <trkpt lat="43.44666" lon="5.89997">
        <ele>348.13</ele>
        <time>2019-03-24T09:19:05Z</time>
      </trkpt>
      <trkpt lat="43.44667" lon="5.89999">
        <ele>348.13</ele>
        <time>2019-03-24T09:19:06Z</time>
      </trkpt>
      <trkpt lat="43.44668" lon="5.9">
        <ele>348.13</ele>
        <time>2019-03-24T09:19:07Z</time>
      </trkpt>
      <trkpt lat="43.44692" lon="5.90015">
        <ele>349.1</ele>
        <time>2019-03-24T09:19:24Z</time>
      </trkpt>
      <trkpt lat="43.44711" lon="5.89985">
        <ele>345.73</ele>
        <time>2019-03-24T09:19:36Z</time>
      </trkpt>
      <trkpt lat="43.44724" lon="5.89962">
        <ele>343.81</ele>
        <time>2019-03-24T09:19:40Z</time>
      </trkpt>
      <trkpt lat="43.44744" lon="5.89927">
        <ele>342.37</ele>
        <time>2019-03-24T09:19:46Z</time>
      </trkpt>
      <trkpt lat="43.44745" lon="5.89921">
        <ele>342.37</ele>
        <time>2019-03-24T09:19:47Z</time>
      </trkpt>
      <trkpt lat="43.44745" lon="5.89915">
        <ele>342.37</ele>
        <time>2019-03-24T09:19:48Z</time>
      </trkpt>
      <trkpt lat="43.44745" lon="5.89909">
        <ele>342.37</ele>
        <time>2019-03-24T09:19:49Z</time>
      </trkpt>
      <trkpt lat="43.44744" lon="5.89904">
        <ele>341.41</ele>
        <time>2019-03-24T09:19:50Z</time>
      </trkpt>
      <trkpt lat="43.44743" lon="5.89899">
        <ele>341.41</ele>
        <time>2019-03-24T09:19:51Z</time>
      </trkpt>
      <trkpt lat="43.44742" lon="5.89895">
        <ele>341.41</ele>
        <time>2019-03-24T09:19:52Z</time>
      </trkpt>
      <trkpt lat="43.4474" lon="5.89891">
        <ele>341.41</ele>
        <time>2019-03-24T09:19:53Z</time>
      </trkpt>
      <trkpt lat="43.44712" lon="5.89827">
        <ele>339.48</ele>
        <time>2019-03-24T09:20:09Z</time>
      </trkpt>
      <trkpt lat="43.44679" lon="5.89762">
        <ele>336.6</ele>
        <time>2019-03-24T09:20:26Z</time>
      </trkpt>
      <trkpt lat="43.44672" lon="5.89741">
        <ele>335.16</ele>
        <time>2019-03-24T09:20:33Z</time>
      </trkpt>
      <trkpt lat="43.44672" lon="5.89738">
        <ele>334.68</ele>
        <time>2019-03-24T09:20:34Z</time>
      </trkpt>
      <trkpt lat="43.44673" lon="5.89735">
        <ele>334.68</ele>
        <time>2019-03-24T09:20:35Z</time>
      </trkpt>
      <trkpt lat="43.44674" lon="5.89732">
        <ele>334.68</ele>
        <time>2019-03-24T09:20:36Z</time>
      </trkpt>
      <trkpt lat="43.44675" lon="5.89729">
        <ele>334.68</ele>
        <time>2019-03-24T09:20:37Z</time>
      </trkpt>
      <trkpt lat="43.44675" lon="5.89727">
        <ele>334.68</ele>
        <time>2019-03-24T09:20:38Z</time>
      </trkpt>
      <trkpt lat="43.44693" lon="5.89692">
        <ele>333.71</ele>
        <time>2019-03-24T09:20:48Z</time>
      </trkpt>
      <trkpt lat="43.44715" lon="5.89625">
        <ele>333.23</ele>
        <time>2019-03-24T09:21:02Z</time>
      </trkpt>
      <trkpt lat="43.44728" lon="5.89596">
        <ele>334.68</ele>
        <time>2019-03-24T09:21:10Z</time>
      </trkpt>
      <trkpt lat="43.4476" lon="5.89527">
        <ele>336.12</ele>
        <time>2019-03-24T09:21:25Z</time>
      </trkpt>
      <trkpt lat="43.44781" lon="5.89457">
        <ele>338.52</ele>
        <time>2019-03-24T09:21:40Z</time>
      </trkpt>
      <trkpt lat="43.44791" lon="5.89409">
        <ele>341.89</ele>
        <time>2019-03-24T09:21:52Z</time>
      </trkpt>
      <trkpt lat="43.44787" lon="5.89369">
        <ele>344.77</ele>
        <time>2019-03-24T09:22:03Z</time>
      </trkpt>
      <trkpt lat="43.44787" lon="5.89321">
        <ele>347.17</ele>
        <time>2019-03-24T09:22:18Z</time>
      </trkpt>
      <trkpt lat="43.44786" lon="5.89319">
        <ele>347.17</ele>
        <time>2019-03-24T09:22:19Z</time>
      </trkpt>
      <trkpt lat="43.44785" lon="5.89319">
        <ele>347.17</ele>
        <time>2019-03-24T09:22:20Z</time>
      </trkpt>
      <trkpt lat="43.44785" lon="5.89319">
        <ele>347.17</ele>
        <time>2019-03-24T09:22:21Z</time>
      </trkpt>
      <trkpt lat="43.44785" lon="5.8932">
        <ele>347.17</ele>
        <time>2019-03-24T09:22:22Z</time>
      </trkpt>
      <trkpt lat="43.44785" lon="5.8932">
        <ele>346.69</ele>
        <time>2019-03-24T09:22:23Z</time>
      </trkpt>
      <trkpt lat="43.44796" lon="5.8934">
        <ele>347.17</ele>
        <time>2019-03-24T09:22:37Z</time>
      </trkpt>
      <trkpt lat="43.4482" lon="5.8938">
        <ele>350.06</ele>
        <time>2019-03-24T09:22:55Z</time>
      </trkpt>
      <trkpt lat="43.44845" lon="5.89418">
        <ele>351.02</ele>
        <time>2019-03-24T09:23:11Z</time>
      </trkpt>
      <trkpt lat="43.4486" lon="5.89435">
        <ele>351.5</ele>
        <time>2019-03-24T09:23:22Z</time>
      </trkpt>
      <trkpt lat="43.44863" lon="5.89439">
        <ele>351.5</ele>
        <time>2019-03-24T09:23:34Z</time>
      </trkpt>
      <trkpt lat="43.44867" lon="5.89443">
        <ele>351.5</ele>
        <time>2019-03-24T09:23:54Z</time>
      </trkpt>
      <trkpt lat="43.44868" lon="5.89446">
        <ele>351.5</ele>
        <time>2019-03-24T09:24:01Z</time>
      </trkpt>
      <trkpt lat="43.44869" lon="5.89447">
        <ele>351.5</ele>
        <time>2019-03-24T09:24:02Z</time>
      </trkpt>
      <trkpt lat="43.44884" lon="5.89465">
        <ele>351.98</ele>
        <time>2019-03-24T09:24:15Z</time>
      </trkpt>
      <trkpt lat="43.44903" lon="5.89488">
        <ele>352.46</ele>
        <time>2019-03-24T09:24:28Z</time>
      </trkpt>
      <trkpt lat="43.44915" lon="5.89505">
        <ele>352.46</ele>
        <time>2019-03-24T09:24:36Z</time>
      </trkpt>
      <trkpt lat="43.44931" lon="5.89533">
        <ele>353.42</ele>
        <time>2019-03-24T09:24:49Z</time>
      </trkpt>
      <trkpt lat="43.44956" lon="5.89529">
        <ele>351.5</ele>
        <time>2019-03-24T09:25:05Z</time>
      </trkpt>
      <trkpt lat="43.44968" lon="5.89528">
        <ele>349.58</ele>
        <time>2019-03-24T09:25:12Z</time>
      </trkpt>
      <trkpt lat="43.44992" lon="5.89527">
        <ele>346.21</ele>
        <time>2019-03-24T09:25:25Z</time>
      </trkpt>
      <trkpt lat="43.44996" lon="5.89529">
        <ele>347.65</ele>
        <time>2019-03-24T09:25:27Z</time>
      </trkpt>
      <trkpt lat="43.45003" lon="5.89529">
        <ele>345.73</ele>
        <time>2019-03-24T09:25:30Z</time>
      </trkpt>
      <trkpt lat="43.45007" lon="5.89527">
        <ele>344.29</ele>
        <time>2019-03-24T09:25:32Z</time>
      </trkpt>
      <trkpt lat="43.45026" lon="5.89529">
        <ele>343.33</ele>
        <time>2019-03-24T09:25:38Z</time>
      </trkpt>
      <trkpt lat="43.45052" lon="5.89537">
        <ele>339.96</ele>
        <time>2019-03-24T09:25:49Z</time>
      </trkpt>
      <trkpt lat="43.45064" lon="5.8954">
        <ele>338.52</ele>
        <time>2019-03-24T09:25:55Z</time>
      </trkpt>
      <trkpt lat="43.45087" lon="5.89543">
        <ele>335.16</ele>
        <time>2019-03-24T09:26:04Z</time>
      </trkpt>
      <trkpt lat="43.45089" lon="5.89544">
        <ele>335.16</ele>
        <time>2019-03-24T09:26:05Z</time>
      </trkpt>
      <trkpt lat="43.45111" lon="5.8955">
        <ele>331.79</ele>
        <time>2019-03-24T09:26:14Z</time>
      </trkpt>
      <trkpt lat="43.45132" lon="5.89546">
        <ele>333.71</ele>
        <time>2019-03-24T09:26:23Z</time>
      </trkpt>
      <trkpt lat="43.45158" lon="5.89542">
        <ele>334.68</ele>
        <time>2019-03-24T09:26:34Z</time>
      </trkpt>
      <trkpt lat="43.45169" lon="5.89546">
        <ele>335.64</ele>
        <time>2019-03-24T09:26:48Z</time>
      </trkpt>
      <trkpt lat="43.45179" lon="5.89546">
        <ele>336.12</ele>
        <time>2019-03-24T09:27:03Z</time>
      </trkpt>
      <trkpt lat="43.45183" lon="5.89546">
        <ele>336.12</ele>
        <time>2019-03-24T09:27:21Z</time>
      </trkpt>
      <trkpt lat="43.45196" lon="5.89545">
        <ele>336.12</ele>
        <time>2019-03-24T09:27:32Z</time>
      </trkpt>
      <trkpt lat="43.45208" lon="5.89547">
        <ele>336.12</ele>
        <time>2019-03-24T09:27:50Z</time>
      </trkpt>
      <trkpt lat="43.45216" lon="5.89548">
        <ele>334.68</ele>
        <time>2019-03-24T09:28:05Z</time>
      </trkpt>
      <trkpt lat="43.45217" lon="5.89548">
        <ele>334.68</ele>
        <time>2019-03-24T09:28:06Z</time>
      </trkpt>
      <trkpt lat="43.4522" lon="5.89546">
        <ele>334.68</ele>
        <time>2019-03-24T09:28:09Z</time>
      </trkpt>
      <trkpt lat="43.45227" lon="5.89542">
        <ele>333.71</ele>
        <time>2019-03-24T09:28:22Z</time>
      </trkpt>
      <trkpt lat="43.45233" lon="5.89543">
        <ele>332.75</ele>
        <time>2019-03-24T09:28:43Z</time>
      </trkpt>
      <trkpt lat="43.45235" lon="5.89541">
        <ele>332.27</ele>
        <time>2019-03-24T09:28:52Z</time>
      </trkpt>
      <trkpt lat="43.45239" lon="5.89523">
        <ele>328.91</ele>
        <time>2019-03-24T09:29:08Z</time>
      </trkpt>
      <trkpt lat="43.45239" lon="5.89523">
        <ele>328.91</ele>
        <time>2019-03-24T09:29:09Z</time>
      </trkpt>
      <trkpt lat="43.45246" lon="5.89498">
        <ele>326.5</ele>
        <time>2019-03-24T09:29:27Z</time>
      </trkpt>
      <trkpt lat="43.45249" lon="5.89488">
        <ele>326.5</ele>
        <time>2019-03-24T09:29:42Z</time>
      </trkpt>
      <trkpt lat="43.45254" lon="5.89488">
        <ele>325.54</ele>
        <time>2019-03-24T09:29:57Z</time>
      </trkpt>
      <trkpt lat="43.45257" lon="5.89488">
        <ele>323.62</ele>
        <time>2019-03-24T09:30:11Z</time>
      </trkpt>
      <trkpt lat="43.45259" lon="5.89489">
        <ele>323.62</ele>
        <time>2019-03-24T09:30:18Z</time>
      </trkpt>
      <trkpt lat="43.45259" lon="5.89493">
        <ele>323.62</ele>
        <time>2019-03-24T09:30:21Z</time>
      </trkpt>
      <trkpt lat="43.45265" lon="5.89498">
        <ele>322.18</ele>
        <time>2019-03-24T09:30:27Z</time>
      </trkpt>
      <trkpt lat="43.45269" lon="5.89509">
        <ele>321.22</ele>
        <time>2019-03-24T09:30:35Z</time>
      </trkpt>
      <trkpt lat="43.45271" lon="5.89513">
        <ele>321.22</ele>
        <time>2019-03-24T09:30:38Z</time>
      </trkpt>
      <trkpt lat="43.45277" lon="5.8953">
        <ele>321.22</ele>
        <time>2019-03-24T09:30:52Z</time>
      </trkpt>
      <trkpt lat="43.45278" lon="5.89531">
        <ele>321.22</ele>
        <time>2019-03-24T09:31:10Z</time>
      </trkpt>
      <trkpt lat="43.45287" lon="5.89521">
        <ele>319.78</ele>
        <time>2019-03-24T09:31:17Z</time>
      </trkpt>
      <trkpt lat="43.45295" lon="5.89518">
        <ele>318.81</ele>
        <time>2019-03-24T09:31:22Z</time>
      </trkpt>
      <trkpt lat="43.45321" lon="5.89511">
        <ele>316.41</ele>
        <time>2019-03-24T09:31:34Z</time>
      </trkpt>
      <trkpt lat="43.45362" lon="5.89485">
        <ele>314.97</ele>
        <time>2019-03-24T09:31:47Z</time>
      </trkpt>
      <trkpt lat="43.45413" lon="5.89449">
        <ele>314.01</ele>
        <time>2019-03-24T09:32:06Z</time>
      </trkpt>
      <trkpt lat="43.45438" lon="5.89411">
        <ele>315.93</ele>
        <time>2019-03-24T09:32:21Z</time>
      </trkpt>
      <trkpt lat="43.45438" lon="5.89402">
        <ele>316.41</ele>
        <time>2019-03-24T09:32:26Z</time>
      </trkpt>
      <trkpt lat="43.45436" lon="5.89399">
        <ele>316.41</ele>
        <time>2019-03-24T09:32:29Z</time>
      </trkpt>
      <trkpt lat="43.45439" lon="5.89403">
        <ele>316.41</ele>
        <time>2019-03-24T09:32:33Z</time>
      </trkpt>
      <trkpt lat="43.45441" lon="5.89405">
        <ele>316.41</ele>
        <time>2019-03-24T09:32:34Z</time>
      </trkpt>
      <trkpt lat="43.45442" lon="5.89406">
        <ele>316.41</ele>
        <time>2019-03-24T09:32:35Z</time>
      </trkpt>
      <trkpt lat="43.45443" lon="5.89409">
        <ele>316.41</ele>
        <time>2019-03-24T09:32:36Z</time>
      </trkpt>
      <trkpt lat="43.45444" lon="5.8941">
        <ele>316.41</ele>
        <time>2019-03-24T09:32:37Z</time>
      </trkpt>
      <trkpt lat="43.45445" lon="5.89412">
        <ele>316.41</ele>
        <time>2019-03-24T09:32:38Z</time>
      </trkpt>
      <trkpt lat="43.45462" lon="5.89432">
        <ele>316.41</ele>
        <time>2019-03-24T09:32:55Z</time>
      </trkpt>
      <trkpt lat="43.45463" lon="5.89434">
        <ele>316.41</ele>
        <time>2019-03-24T09:32:59Z</time>
      </trkpt>
      <trkpt lat="43.45466" lon="5.89433">
        <ele>316.41</ele>
        <time>2019-03-24T09:33:00Z</time>
      </trkpt>
      <trkpt lat="43.45468" lon="5.89432">
        <ele>316.89</ele>
        <time>2019-03-24T09:33:02Z</time>
      </trkpt>
      <trkpt lat="43.45472" lon="5.8943">
        <ele>316.89</ele>
        <time>2019-03-24T09:33:03Z</time>
      </trkpt>
      <trkpt lat="43.45474" lon="5.89428">
        <ele>317.37</ele>
        <time>2019-03-24T09:33:04Z</time>
      </trkpt>
      <trkpt lat="43.45476" lon="5.89427">
        <ele>317.37</ele>
        <time>2019-03-24T09:33:05Z</time>
      </trkpt>
      <trkpt lat="43.45478" lon="5.89426">
        <ele>317.37</ele>
        <time>2019-03-24T09:33:06Z</time>
      </trkpt>
      <trkpt lat="43.45479" lon="5.89425">
        <ele>317.37</ele>
        <time>2019-03-24T09:33:07Z</time>
      </trkpt>
      <trkpt lat="43.45512" lon="5.89421">
        <ele>319.3</ele>
        <time>2019-03-24T09:33:21Z</time>
      </trkpt>
      <trkpt lat="43.45552" lon="5.89413">
        <ele>320.74</ele>
        <time>2019-03-24T09:33:36Z</time>
      </trkpt>
      <trkpt lat="43.45576" lon="5.89434">
        <ele>318.33</ele>
        <time>2019-03-24T09:33:47Z</time>
      </trkpt>
      <trkpt lat="43.45578" lon="5.89434">
        <ele>318.33</ele>
        <time>2019-03-24T09:33:48Z</time>
      </trkpt>
      <trkpt lat="43.4558" lon="5.89434">
        <ele>318.33</ele>
        <time>2019-03-24T09:33:49Z</time>
      </trkpt>
      <trkpt lat="43.45582" lon="5.89434">
        <ele>317.85</ele>
        <time>2019-03-24T09:33:50Z</time>
      </trkpt>
      <trkpt lat="43.45622" lon="5.89438">
        <ele>315.93</ele>
        <time>2019-03-24T09:34:01Z</time>
      </trkpt>
      <trkpt lat="43.45627" lon="5.8944">
        <ele>315.45</ele>
        <time>2019-03-24T09:34:02Z</time>
      </trkpt>
      <trkpt lat="43.45644" lon="5.8944">
        <ele>314.97</ele>
        <time>2019-03-24T09:34:05Z</time>
      </trkpt>
      <trkpt lat="43.4565" lon="5.8944">
        <ele>314.97</ele>
        <time>2019-03-24T09:34:06Z</time>
      </trkpt>
      <trkpt lat="43.45656" lon="5.89439">
        <ele>314.97</ele>
        <time>2019-03-24T09:34:07Z</time>
      </trkpt>
      <trkpt lat="43.45661" lon="5.89438">
        <ele>314.97</ele>
        <time>2019-03-24T09:34:08Z</time>
      </trkpt>
      <trkpt lat="43.45666" lon="5.89436">
        <ele>314.97</ele>
        <time>2019-03-24T09:34:09Z</time>
      </trkpt>
      <trkpt lat="43.45671" lon="5.89435">
        <ele>314.97</ele>
        <time>2019-03-24T09:34:10Z</time>
      </trkpt>
      <trkpt lat="43.45675" lon="5.89434">
        <ele>316.41</ele>
        <time>2019-03-24T09:34:11Z</time>
      </trkpt>
      <trkpt lat="43.45678" lon="5.89433">
        <ele>316.89</ele>
        <time>2019-03-24T09:34:12Z</time>
      </trkpt>
      <trkpt lat="43.45681" lon="5.89433">
        <ele>317.37</ele>
        <time>2019-03-24T09:34:13Z</time>
      </trkpt>
      <trkpt lat="43.45685" lon="5.89433">
        <ele>317.37</ele>
        <time>2019-03-24T09:34:14Z</time>
      </trkpt>
      <trkpt lat="43.45688" lon="5.89433">
        <ele>318.33</ele>
        <time>2019-03-24T09:34:15Z</time>
      </trkpt>
      <trkpt lat="43.45691" lon="5.89434">
        <ele>318.81</ele>
        <time>2019-03-24T09:34:16Z</time>
      </trkpt>
      <trkpt lat="43.45712" lon="5.89429">
        <ele>322.66</ele>
        <time>2019-03-24T09:34:24Z</time>
      </trkpt>
      <trkpt lat="43.45715" lon="5.89428">
        <ele>322.66</ele>
        <time>2019-03-24T09:34:25Z</time>
      </trkpt>
      <trkpt lat="43.45732" lon="5.89419">
        <ele>326.02</ele>
        <time>2019-03-24T09:34:33Z</time>
      </trkpt>
      <trkpt lat="43.45752" lon="5.89413">
        <ele>328.91</ele>
        <time>2019-03-24T09:34:42Z</time>
      </trkpt>
      <trkpt lat="43.45775" lon="5.89404">
        <ele>332.27</ele>
        <time>2019-03-24T09:34:54Z</time>
      </trkpt>
      <trkpt lat="43.45784" lon="5.89404">
        <ele>332.75</ele>
        <time>2019-03-24T09:35:02Z</time>
      </trkpt>
      <trkpt lat="43.45788" lon="5.89398">
        <ele>333.23</ele>
        <time>2019-03-24T09:35:05Z</time>
      </trkpt>
      <trkpt lat="43.4579" lon="5.89397">
        <ele>333.23</ele>
        <time>2019-03-24T09:35:06Z</time>
      </trkpt>
      <trkpt lat="43.45792" lon="5.89397">
        <ele>333.71</ele>
        <time>2019-03-24T09:35:07Z</time>
      </trkpt>
      <trkpt lat="43.45807" lon="5.89393">
        <ele>335.64</ele>
        <time>2019-03-24T09:35:14Z</time>
      </trkpt>
      <trkpt lat="43.4581" lon="5.89394">
        <ele>336.6</ele>
        <time>2019-03-24T09:35:16Z</time>
      </trkpt>
      <trkpt lat="43.45811" lon="5.89395">
        <ele>336.6</ele>
        <time>2019-03-24T09:35:17Z</time>
      </trkpt>
      <trkpt lat="43.45813" lon="5.89396">
        <ele>337.08</ele>
        <time>2019-03-24T09:35:18Z</time>
      </trkpt>
      <trkpt lat="43.45838" lon="5.89424">
        <ele>338.52</ele>
        <time>2019-03-24T09:35:32Z</time>
      </trkpt>
      <trkpt lat="43.45874" lon="5.89435">
        <ele>340.44</ele>
        <time>2019-03-24T09:35:48Z</time>
      </trkpt>
      <trkpt lat="43.45913" lon="5.89444">
        <ele>341.41</ele>
        <time>2019-03-24T09:36:06Z</time>
      </trkpt>
      <trkpt lat="43.45954" lon="5.89447">
        <ele>342.37</ele>
        <time>2019-03-24T09:36:23Z</time>
      </trkpt>
      <trkpt lat="43.45971" lon="5.89451">
        <ele>342.37</ele>
        <time>2019-03-24T09:36:38Z</time>
      </trkpt>
      <trkpt lat="43.45996" lon="5.89459">
        <ele>339.48</ele>
        <time>2019-03-24T09:36:54Z</time>
      </trkpt>
      <trkpt lat="43.46043" lon="5.89473">
        <ele>336.12</ele>
        <time>2019-03-24T09:37:01Z</time>
      </trkpt>
      <trkpt lat="43.46052" lon="5.89475">
        <ele>336.6</ele>
        <time>2019-03-24T09:37:02Z</time>
      </trkpt>
      <trkpt lat="43.46078" lon="5.89484">
        <ele>334.68</ele>
        <time>2019-03-24T09:37:05Z</time>
      </trkpt>
      <trkpt lat="43.46087" lon="5.89485">
        <ele>334.68</ele>
        <time>2019-03-24T09:37:06Z</time>
      </trkpt>
      <trkpt lat="43.46097" lon="5.89485">
        <ele>333.23</ele>
        <time>2019-03-24T09:37:07Z</time>
      </trkpt>
      <trkpt lat="43.46106" lon="5.89484">
        <ele>333.23</ele>
        <time>2019-03-24T09:37:08Z</time>
      </trkpt>
      <trkpt lat="43.46115" lon="5.89485">
        <ele>333.23</ele>
        <time>2019-03-24T09:37:09Z</time>
      </trkpt>
      <trkpt lat="43.46122" lon="5.89487">
        <ele>333.23</ele>
        <time>2019-03-24T09:37:10Z</time>
      </trkpt>
      <trkpt lat="43.46128" lon="5.8949">
        <ele>333.23</ele>
        <time>2019-03-24T09:37:11Z</time>
      </trkpt>
      <trkpt lat="43.46133" lon="5.89492">
        <ele>333.23</ele>
        <time>2019-03-24T09:37:12Z</time>
      </trkpt>
      <trkpt lat="43.46141" lon="5.89497">
        <ele>334.68</ele>
        <time>2019-03-24T09:37:14Z</time>
      </trkpt>
      <trkpt lat="43.46157" lon="5.89503">
        <ele>336.6</ele>
        <time>2019-03-24T09:37:18Z</time>
      </trkpt>
      <trkpt lat="43.46179" lon="5.89496">
        <ele>339.48</ele>
        <time>2019-03-24T09:37:25Z</time>
      </trkpt>
      <trkpt lat="43.46181" lon="5.89494">
        <ele>339.48</ele>
        <time>2019-03-24T09:37:26Z</time>
      </trkpt>
      <trkpt lat="43.46216" lon="5.89477">
        <ele>340.92</ele>
        <time>2019-03-24T09:37:38Z</time>
      </trkpt>
      <trkpt lat="43.46268" lon="5.89474">
        <ele>340.92</ele>
        <time>2019-03-24T09:37:51Z</time>
      </trkpt>
      <trkpt lat="43.463" lon="5.89483">
        <ele>341.41</ele>
        <time>2019-03-24T09:37:59Z</time>
      </trkpt>
      <trkpt lat="43.46303" lon="5.89481">
        <ele>341.41</ele>
        <time>2019-03-24T09:38:00Z</time>
      </trkpt>
      <trkpt lat="43.46307" lon="5.89478">
        <ele>339.96</ele>
        <time>2019-03-24T09:38:01Z</time>
      </trkpt>
      <trkpt lat="43.4631" lon="5.89474">
        <ele>339.96</ele>
        <time>2019-03-24T09:38:02Z</time>
      </trkpt>
      <trkpt lat="43.46313" lon="5.89469">
        <ele>339.96</ele>
        <time>2019-03-24T09:38:03Z</time>
      </trkpt>
      <trkpt lat="43.46365" lon="5.89413">
        <ele>338.52</ele>
        <time>2019-03-24T09:38:14Z</time>
      </trkpt>
      <trkpt lat="43.46373" lon="5.89405">
        <ele>338.52</ele>
        <time>2019-03-24T09:38:16Z</time>
      </trkpt>
      <trkpt lat="43.46378" lon="5.89401">
        <ele>338.52</ele>
        <time>2019-03-24T09:38:17Z</time>
      </trkpt>
      <trkpt lat="43.46382" lon="5.89397">
        <ele>338.52</ele>
        <time>2019-03-24T09:38:18Z</time>
      </trkpt>
      <trkpt lat="43.46399" lon="5.89386">
        <ele>339.96</ele>
        <time>2019-03-24T09:38:22Z</time>
      </trkpt>
      <trkpt lat="43.46433" lon="5.89365">
        <ele>341.41</ele>
        <time>2019-03-24T09:38:32Z</time>
      </trkpt>
      <trkpt lat="43.46433" lon="5.89361">
        <ele>341.41</ele>
        <time>2019-03-24T09:38:33Z</time>
      </trkpt>
      <trkpt lat="43.46415" lon="5.89299">
        <ele>341.41</ele>
        <time>2019-03-24T09:38:47Z</time>
      </trkpt>
      <trkpt lat="43.46405" lon="5.89273">
        <ele>340.44</ele>
        <time>2019-03-24T09:38:52Z</time>
      </trkpt>
      <trkpt lat="43.46403" lon="5.89268">
        <ele>340.44</ele>
        <time>2019-03-24T09:38:53Z</time>
      </trkpt>
      <trkpt lat="43.46388" lon="5.89239">
        <ele>339</ele>
        <time>2019-03-24T09:38:58Z</time>
      </trkpt>
      <trkpt lat="43.46386" lon="5.89233">
        <ele>339</ele>
        <time>2019-03-24T09:38:59Z</time>
      </trkpt>
      <trkpt lat="43.46384" lon="5.89226">
        <ele>339</ele>
        <time>2019-03-24T09:39:00Z</time>
      </trkpt>
      <trkpt lat="43.46383" lon="5.89218">
        <ele>338.52</ele>
        <time>2019-03-24T09:39:01Z</time>
      </trkpt>
      <trkpt lat="43.46382" lon="5.8921">
        <ele>338.52</ele>
        <time>2019-03-24T09:39:02Z</time>
      </trkpt>
      <trkpt lat="43.46382" lon="5.89201">
        <ele>338.52</ele>
        <time>2019-03-24T09:39:03Z</time>
      </trkpt>
      <trkpt lat="43.46371" lon="5.89086">
        <ele>337.08</ele>
        <time>2019-03-24T09:39:18Z</time>
      </trkpt>
      <trkpt lat="43.46368" lon="5.89056">
        <ele>337.08</ele>
        <time>2019-03-24T09:39:22Z</time>
      </trkpt>
      <trkpt lat="43.46368" lon="5.89049">
        <ele>336.6</ele>
        <time>2019-03-24T09:39:23Z</time>
      </trkpt>
      <trkpt lat="43.46364" lon="5.88945">
        <ele>336.12</ele>
        <time>2019-03-24T09:39:37Z</time>
      </trkpt>
      <trkpt lat="43.46363" lon="5.88937">
        <ele>336.12</ele>
        <time>2019-03-24T09:39:38Z</time>
      </trkpt>
      <trkpt lat="43.46361" lon="5.88931">
        <ele>336.12</ele>
        <time>2019-03-24T09:39:39Z</time>
      </trkpt>
      <trkpt lat="43.46358" lon="5.88927">
        <ele>336.12</ele>
        <time>2019-03-24T09:39:40Z</time>
      </trkpt>
      <trkpt lat="43.46354" lon="5.88923">
        <ele>336.12</ele>
        <time>2019-03-24T09:39:41Z</time>
      </trkpt>
      <trkpt lat="43.4635" lon="5.8892">
        <ele>336.12</ele>
        <time>2019-03-24T09:39:42Z</time>
      </trkpt>
      <trkpt lat="43.46345" lon="5.88917">
        <ele>336.12</ele>
        <time>2019-03-24T09:39:43Z</time>
      </trkpt>
      <trkpt lat="43.46341" lon="5.88913">
        <ele>336.12</ele>
        <time>2019-03-24T09:39:44Z</time>
      </trkpt>
      <trkpt lat="43.46336" lon="5.88907">
        <ele>336.12</ele>
        <time>2019-03-24T09:39:45Z</time>
      </trkpt>
      <trkpt lat="43.46334" lon="5.88902">
        <ele>336.12</ele>
        <time>2019-03-24T09:39:46Z</time>
      </trkpt>
      <trkpt lat="43.46332" lon="5.88895">
        <ele>336.12</ele>
        <time>2019-03-24T09:39:47Z</time>
      </trkpt>
      <trkpt lat="43.46331" lon="5.88888">
        <ele>336.12</ele>
        <time>2019-03-24T09:39:48Z</time>
      </trkpt>
      <trkpt lat="43.46331" lon="5.88882">
        <ele>337.08</ele>
        <time>2019-03-24T09:39:49Z</time>
      </trkpt>
      <trkpt lat="43.46332" lon="5.88832">
        <ele>337.08</ele>
        <time>2019-03-24T09:39:57Z</time>
      </trkpt>
      <trkpt lat="43.46331" lon="5.88826">
        <ele>337.08</ele>
        <time>2019-03-24T09:39:58Z</time>
      </trkpt>
      <trkpt lat="43.4633" lon="5.88813">
        <ele>337.08</ele>
        <time>2019-03-24T09:40:00Z</time>
      </trkpt>
      <trkpt lat="43.46329" lon="5.88807">
        <ele>337.08</ele>
        <time>2019-03-24T09:40:01Z</time>
      </trkpt>
      <trkpt lat="43.46322" lon="5.8876">
        <ele>335.64</ele>
        <time>2019-03-24T09:40:08Z</time>
      </trkpt>
      <trkpt lat="43.46319" lon="5.88739">
        <ele>335.64</ele>
        <time>2019-03-24T09:40:11Z</time>
      </trkpt>
      <trkpt lat="43.46318" lon="5.8873">
        <ele>335.64</ele>
        <time>2019-03-24T09:40:12Z</time>
      </trkpt>
      <trkpt lat="43.46298" lon="5.88628">
        <ele>334.68</ele>
        <time>2019-03-24T09:40:24Z</time>
      </trkpt>
      <trkpt lat="43.4629" lon="5.88589">
        <ele>334.2</ele>
        <time>2019-03-24T09:40:29Z</time>
      </trkpt>
      <trkpt lat="43.46275" lon="5.8854">
        <ele>333.71</ele>
        <time>2019-03-24T09:40:36Z</time>
      </trkpt>
      <trkpt lat="43.46274" lon="5.88533">
        <ele>333.71</ele>
        <time>2019-03-24T09:40:37Z</time>
      </trkpt>
      <trkpt lat="43.46274" lon="5.88526">
        <ele>333.23</ele>
        <time>2019-03-24T09:40:38Z</time>
      </trkpt>
      <trkpt lat="43.46276" lon="5.88518">
        <ele>333.23</ele>
        <time>2019-03-24T09:40:39Z</time>
      </trkpt>
      <trkpt lat="43.4628" lon="5.88512">
        <ele>333.23</ele>
        <time>2019-03-24T09:40:40Z</time>
      </trkpt>
      <trkpt lat="43.46285" lon="5.88507">
        <ele>333.23</ele>
        <time>2019-03-24T09:40:41Z</time>
      </trkpt>
      <trkpt lat="43.4629" lon="5.88502">
        <ele>333.23</ele>
        <time>2019-03-24T09:40:42Z</time>
      </trkpt>
      <trkpt lat="43.4632" lon="5.88476">
        <ele>334.68</ele>
        <time>2019-03-24T09:40:47Z</time>
      </trkpt>
      <trkpt lat="43.46336" lon="5.8846">
        <ele>334.68</ele>
        <time>2019-03-24T09:40:50Z</time>
      </trkpt>
      <trkpt lat="43.46341" lon="5.88453">
        <ele>334.68</ele>
        <time>2019-03-24T09:40:51Z</time>
      </trkpt>
      <trkpt lat="43.46344" lon="5.88445">
        <ele>335.16</ele>
        <time>2019-03-24T09:40:52Z</time>
      </trkpt>
      <trkpt lat="43.46347" lon="5.88437">
        <ele>335.16</ele>
        <time>2019-03-24T09:40:53Z</time>
      </trkpt>
      <trkpt lat="43.46347" lon="5.8843">
        <ele>336.12</ele>
        <time>2019-03-24T09:40:54Z</time>
      </trkpt>
      <trkpt lat="43.46346" lon="5.88422">
        <ele>336.12</ele>
        <time>2019-03-24T09:40:55Z</time>
      </trkpt>
      <trkpt lat="43.46345" lon="5.88417">
        <ele>336.6</ele>
        <time>2019-03-24T09:40:56Z</time>
      </trkpt>
      <trkpt lat="43.46343" lon="5.8841">
        <ele>336.6</ele>
        <time>2019-03-24T09:40:57Z</time>
      </trkpt>
      <trkpt lat="43.46326" lon="5.88329">
        <ele>337.56</ele>
        <time>2019-03-24T09:41:10Z</time>
      </trkpt>
      <trkpt lat="43.46321" lon="5.88316">
        <ele>337.56</ele>
        <time>2019-03-24T09:41:12Z</time>
      </trkpt>
      <trkpt lat="43.46318" lon="5.88311">
        <ele>336.12</ele>
        <time>2019-03-24T09:41:13Z</time>
      </trkpt>
      <trkpt lat="43.46314" lon="5.88305">
        <ele>336.12</ele>
        <time>2019-03-24T09:41:14Z</time>
      </trkpt>
      <trkpt lat="43.46252" lon="5.88232">
        <ele>333.71</ele>
        <time>2019-03-24T09:41:28Z</time>
      </trkpt>
      <trkpt lat="43.46209" lon="5.8817">
        <ele>331.79</ele>
        <time>2019-03-24T09:41:38Z</time>
      </trkpt>
      <trkpt lat="43.46165" lon="5.88069">
        <ele>328.43</ele>
        <time>2019-03-24T09:41:51Z</time>
      </trkpt>
      <trkpt lat="43.46151" lon="5.88021">
        <ele>327.47</ele>
        <time>2019-03-24T09:41:56Z</time>
      </trkpt>
      <trkpt lat="43.46139" lon="5.87967">
        <ele>325.06</ele>
        <time>2019-03-24T09:42:01Z</time>
      </trkpt>
      <trkpt lat="43.46117" lon="5.87875">
        <ele>321.7</ele>
        <time>2019-03-24T09:42:10Z</time>
      </trkpt>
      <trkpt lat="43.46083" lon="5.87775">
        <ele>319.3</ele>
        <time>2019-03-24T09:42:23Z</time>
      </trkpt>
      <trkpt lat="43.46042" lon="5.87658">
        <ele>315.93</ele>
        <time>2019-03-24T09:42:38Z</time>
      </trkpt>
      <trkpt lat="43.46037" lon="5.8765">
        <ele>315.93</ele>
        <time>2019-03-24T09:42:39Z</time>
      </trkpt>
      <trkpt lat="43.46031" lon="5.87645">
        <ele>315.93</ele>
        <time>2019-03-24T09:42:40Z</time>
      </trkpt>
      <trkpt lat="43.46024" lon="5.8764">
        <ele>315.93</ele>
        <time>2019-03-24T09:42:41Z</time>
      </trkpt>
      <trkpt lat="43.46017" lon="5.87638">
        <ele>314.97</ele>
        <time>2019-03-24T09:42:42Z</time>
      </trkpt>
      <trkpt lat="43.4601" lon="5.87636">
        <ele>314.97</ele>
        <time>2019-03-24T09:42:43Z</time>
      </trkpt>
      <trkpt lat="43.46003" lon="5.87635">
        <ele>314.97</ele>
        <time>2019-03-24T09:42:44Z</time>
      </trkpt>
      <trkpt lat="43.45996" lon="5.87635">
        <ele>314.49</ele>
        <time>2019-03-24T09:42:45Z</time>
      </trkpt>
      <trkpt lat="43.45988" lon="5.87633">
        <ele>314.49</ele>
        <time>2019-03-24T09:42:46Z</time>
      </trkpt>
      <trkpt lat="43.4598" lon="5.87629">
        <ele>314.97</ele>
        <time>2019-03-24T09:42:47Z</time>
      </trkpt>
      <trkpt lat="43.45974" lon="5.87625">
        <ele>314.97</ele>
        <time>2019-03-24T09:42:48Z</time>
      </trkpt>
      <trkpt lat="43.45968" lon="5.8762">
        <ele>314.49</ele>
        <time>2019-03-24T09:42:49Z</time>
      </trkpt>
      <trkpt lat="43.45962" lon="5.87614">
        <ele>314.49</ele>
        <time>2019-03-24T09:42:50Z</time>
      </trkpt>
      <trkpt lat="43.45892" lon="5.87535">
        <ele>311.12</ele>
        <time>2019-03-24T09:43:03Z</time>
      </trkpt>
      <trkpt lat="43.45835" lon="5.87471">
        <ele>311.12</ele>
        <time>2019-03-24T09:43:13Z</time>
      </trkpt>
      <trkpt lat="43.45782" lon="5.87394">
        <ele>312.57</ele>
        <time>2019-03-24T09:43:24Z</time>
      </trkpt>
      <trkpt lat="43.45727" lon="5.87333">
        <ele>314.01</ele>
        <time>2019-03-24T09:43:36Z</time>
      </trkpt>
      <trkpt lat="43.45661" lon="5.87275">
        <ele>314.97</ele>
        <time>2019-03-24T09:43:52Z</time>
      </trkpt>
      <trkpt lat="43.45628" lon="5.87244">
        <ele>314.01</ele>
        <time>2019-03-24T09:43:59Z</time>
      </trkpt>
      <trkpt lat="43.45606" lon="5.87213">
        <ele>313.05</ele>
        <time>2019-03-24T09:44:04Z</time>
      </trkpt>
      <trkpt lat="43.45589" lon="5.87179">
        <ele>312.57</ele>
        <time>2019-03-24T09:44:08Z</time>
      </trkpt>
      <trkpt lat="43.45553" lon="5.87072">
        <ele>311.12</ele>
        <time>2019-03-24T09:44:21Z</time>
      </trkpt>
      <trkpt lat="43.45541" lon="5.87039">
        <ele>311.12</ele>
        <time>2019-03-24T09:44:25Z</time>
      </trkpt>
      <trkpt lat="43.45539" lon="5.87031">
        <ele>311.12</ele>
        <time>2019-03-24T09:44:26Z</time>
      </trkpt>
      <trkpt lat="43.45537" lon="5.8702">
        <ele>311.12</ele>
        <time>2019-03-24T09:44:27Z</time>
      </trkpt>
      <trkpt lat="43.45532" lon="5.86992">
        <ele>310.64</ele>
        <time>2019-03-24T09:44:30Z</time>
      </trkpt>
      <trkpt lat="43.45529" lon="5.86983">
        <ele>310.64</ele>
        <time>2019-03-24T09:44:31Z</time>
      </trkpt>
      <trkpt lat="43.45525" lon="5.86976">
        <ele>310.16</ele>
        <time>2019-03-24T09:44:32Z</time>
      </trkpt>
      <trkpt lat="43.4552" lon="5.86969">
        <ele>310.16</ele>
        <time>2019-03-24T09:44:33Z</time>
      </trkpt>
      <trkpt lat="43.45515" lon="5.86963">
        <ele>310.16</ele>
        <time>2019-03-24T09:44:34Z</time>
      </trkpt>
      <trkpt lat="43.45447" lon="5.8688">
        <ele>309.68</ele>
        <time>2019-03-24T09:44:48Z</time>
      </trkpt>
      <trkpt lat="43.45397" lon="5.86822">
        <ele>311.12</ele>
        <time>2019-03-24T09:44:59Z</time>
      </trkpt>
      <trkpt lat="43.45334" lon="5.86769">
        <ele>312.09</ele>
        <time>2019-03-24T09:45:12Z</time>
      </trkpt>
      <trkpt lat="43.45304" lon="5.86744">
        <ele>313.05</ele>
        <time>2019-03-24T09:45:20Z</time>
      </trkpt>
      <trkpt lat="43.45299" lon="5.8674">
        <ele>313.05</ele>
        <time>2019-03-24T09:45:21Z</time>
      </trkpt>
      <trkpt lat="43.45296" lon="5.86736">
        <ele>313.05</ele>
        <time>2019-03-24T09:45:22Z</time>
      </trkpt>
      <trkpt lat="43.45292" lon="5.86733">
        <ele>312.57</ele>
        <time>2019-03-24T09:45:23Z</time>
      </trkpt>
      <trkpt lat="43.45288" lon="5.86728">
        <ele>312.57</ele>
        <time>2019-03-24T09:45:24Z</time>
      </trkpt>
      <trkpt lat="43.45285" lon="5.86723">
        <ele>313.05</ele>
        <time>2019-03-24T09:45:25Z</time>
      </trkpt>
      <trkpt lat="43.45282" lon="5.86718">
        <ele>313.05</ele>
        <time>2019-03-24T09:45:26Z</time>
      </trkpt>
      <trkpt lat="43.45278" lon="5.86713">
        <ele>313.05</ele>
        <time>2019-03-24T09:45:27Z</time>
      </trkpt>
      <trkpt lat="43.45258" lon="5.86685">
        <ele>314.01</ele>
        <time>2019-03-24T09:45:33Z</time>
      </trkpt>
      <trkpt lat="43.45255" lon="5.86681">
        <ele>314.01</ele>
        <time>2019-03-24T09:45:34Z</time>
      </trkpt>
      <trkpt lat="43.45251" lon="5.86677">
        <ele>314.01</ele>
        <time>2019-03-24T09:45:35Z</time>
      </trkpt>
      <trkpt lat="43.45184" lon="5.86609">
        <ele>315.93</ele>
        <time>2019-03-24T09:45:52Z</time>
      </trkpt>
      <trkpt lat="43.4518" lon="5.86605">
        <ele>316.41</ele>
        <time>2019-03-24T09:45:53Z</time>
      </trkpt>
      <trkpt lat="43.45175" lon="5.86602">
        <ele>316.41</ele>
        <time>2019-03-24T09:45:54Z</time>
      </trkpt>
      <trkpt lat="43.45171" lon="5.86599">
        <ele>316.41</ele>
        <time>2019-03-24T09:45:55Z</time>
      </trkpt>
      <trkpt lat="43.45163" lon="5.86593">
        <ele>316.89</ele>
        <time>2019-03-24T09:45:57Z</time>
      </trkpt>
      <trkpt lat="43.45159" lon="5.86591">
        <ele>316.89</ele>
        <time>2019-03-24T09:45:58Z</time>
      </trkpt>
      <trkpt lat="43.45155" lon="5.86591">
        <ele>316.89</ele>
        <time>2019-03-24T09:45:59Z</time>
      </trkpt>
      <trkpt lat="43.45147" lon="5.8659">
        <ele>317.37</ele>
        <time>2019-03-24T09:46:01Z</time>
      </trkpt>
      <trkpt lat="43.45143" lon="5.86588">
        <ele>317.37</ele>
        <time>2019-03-24T09:46:02Z</time>
      </trkpt>
      <trkpt lat="43.45139" lon="5.86586">
        <ele>317.37</ele>
        <time>2019-03-24T09:46:03Z</time>
      </trkpt>
      <trkpt lat="43.45135" lon="5.86582">
        <ele>317.85</ele>
        <time>2019-03-24T09:46:04Z</time>
      </trkpt>
      <trkpt lat="43.45131" lon="5.86579">
        <ele>317.85</ele>
        <time>2019-03-24T09:46:05Z</time>
      </trkpt>
      <trkpt lat="43.45128" lon="5.86575">
        <ele>317.37</ele>
        <time>2019-03-24T09:46:06Z</time>
      </trkpt>
      <trkpt lat="43.45116" lon="5.86564">
        <ele>318.33</ele>
        <time>2019-03-24T09:46:09Z</time>
      </trkpt>
      <trkpt lat="43.45051" lon="5.86509">
        <ele>320.26</ele>
        <time>2019-03-24T09:46:25Z</time>
      </trkpt>
      <trkpt lat="43.45007" lon="5.86448">
        <ele>321.7</ele>
        <time>2019-03-24T09:46:37Z</time>
      </trkpt>
      <trkpt lat="43.44996" lon="5.86424">
        <ele>321.7</ele>
        <time>2019-03-24T09:46:41Z</time>
      </trkpt>
      <trkpt lat="43.44994" lon="5.86418">
        <ele>321.7</ele>
        <time>2019-03-24T09:46:42Z</time>
      </trkpt>
      <trkpt lat="43.44992" lon="5.86412">
        <ele>322.18</ele>
        <time>2019-03-24T09:46:43Z</time>
      </trkpt>
      <trkpt lat="43.44989" lon="5.86405">
        <ele>322.18</ele>
        <time>2019-03-24T09:46:44Z</time>
      </trkpt>
      <trkpt lat="43.44986" lon="5.86401">
        <ele>322.18</ele>
        <time>2019-03-24T09:46:45Z</time>
      </trkpt>
      <trkpt lat="43.44982" lon="5.86397">
        <ele>322.18</ele>
        <time>2019-03-24T09:46:46Z</time>
      </trkpt>
      <trkpt lat="43.44978" lon="5.86393">
        <ele>322.18</ele>
        <time>2019-03-24T09:46:47Z</time>
      </trkpt>
      <trkpt lat="43.44973" lon="5.86389">
        <ele>322.18</ele>
        <time>2019-03-24T09:46:48Z</time>
      </trkpt>
      <trkpt lat="43.44969" lon="5.86386">
        <ele>322.18</ele>
        <time>2019-03-24T09:46:49Z</time>
      </trkpt>
      <trkpt lat="43.44892" lon="5.86332">
        <ele>324.1</ele>
        <time>2019-03-24T09:47:07Z</time>
      </trkpt>
      <trkpt lat="43.44876" lon="5.8632">
        <ele>324.58</ele>
        <time>2019-03-24T09:47:11Z</time>
      </trkpt>
      <trkpt lat="43.44873" lon="5.86316">
        <ele>324.58</ele>
        <time>2019-03-24T09:47:12Z</time>
      </trkpt>
      <trkpt lat="43.44871" lon="5.8631">
        <ele>324.58</ele>
        <time>2019-03-24T09:47:13Z</time>
      </trkpt>
      <trkpt lat="43.44869" lon="5.86304">
        <ele>324.58</ele>
        <time>2019-03-24T09:47:14Z</time>
      </trkpt>
      <trkpt lat="43.44867" lon="5.86298">
        <ele>325.06</ele>
        <time>2019-03-24T09:47:15Z</time>
      </trkpt>
      <trkpt lat="43.44864" lon="5.86292">
        <ele>325.06</ele>
        <time>2019-03-24T09:47:16Z</time>
      </trkpt>
      <trkpt lat="43.4486" lon="5.86286">
        <ele>325.54</ele>
        <time>2019-03-24T09:47:17Z</time>
      </trkpt>
      <trkpt lat="43.44852" lon="5.8627">
        <ele>326.02</ele>
        <time>2019-03-24T09:47:20Z</time>
      </trkpt>
      <trkpt lat="43.44817" lon="5.8622">
        <ele>326.99</ele>
        <time>2019-03-24T09:47:31Z</time>
      </trkpt>
      <trkpt lat="43.44816" lon="5.86215">
        <ele>326.99</ele>
        <time>2019-03-24T09:47:32Z</time>
      </trkpt>
      <trkpt lat="43.44816" lon="5.86209">
        <ele>327.47</ele>
        <time>2019-03-24T09:47:33Z</time>
      </trkpt>
      <trkpt lat="43.44817" lon="5.86205">
        <ele>327.47</ele>
        <time>2019-03-24T09:47:34Z</time>
      </trkpt>
      <trkpt lat="43.44819" lon="5.862">
        <ele>327.47</ele>
        <time>2019-03-24T09:47:35Z</time>
      </trkpt>
      <trkpt lat="43.44822" lon="5.86196">
        <ele>327.95</ele>
        <time>2019-03-24T09:47:36Z</time>
      </trkpt>
      <trkpt lat="43.44824" lon="5.86192">
        <ele>327.95</ele>
        <time>2019-03-24T09:47:37Z</time>
      </trkpt>
      <trkpt lat="43.44855" lon="5.86121">
        <ele>327.95</ele>
        <time>2019-03-24T09:47:52Z</time>
      </trkpt>
      <trkpt lat="43.44856" lon="5.86115">
        <ele>327.95</ele>
        <time>2019-03-24T09:47:53Z</time>
      </trkpt>
      <trkpt lat="43.44856" lon="5.86108">
        <ele>327.95</ele>
        <time>2019-03-24T09:47:54Z</time>
      </trkpt>
      <trkpt lat="43.44854" lon="5.86102">
        <ele>327.95</ele>
        <time>2019-03-24T09:47:55Z</time>
      </trkpt>
      <trkpt lat="43.44852" lon="5.86097">
        <ele>327.95</ele>
        <time>2019-03-24T09:47:56Z</time>
      </trkpt>
      <trkpt lat="43.44848" lon="5.86092">
        <ele>327.95</ele>
        <time>2019-03-24T09:47:57Z</time>
      </trkpt>
      <trkpt lat="43.44844" lon="5.8609">
        <ele>327.95</ele>
        <time>2019-03-24T09:47:58Z</time>
      </trkpt>
      <trkpt lat="43.4484" lon="5.8609">
        <ele>327.95</ele>
        <time>2019-03-24T09:47:59Z</time>
      </trkpt>
      <trkpt lat="43.44836" lon="5.86092">
        <ele>327.95</ele>
        <time>2019-03-24T09:48:00Z</time>
      </trkpt>
      <trkpt lat="43.44832" lon="5.86095">
        <ele>327.95</ele>
        <time>2019-03-24T09:48:01Z</time>
      </trkpt>
      <trkpt lat="43.44829" lon="5.861">
        <ele>327.95</ele>
        <time>2019-03-24T09:48:02Z</time>
      </trkpt>
      <trkpt lat="43.44826" lon="5.86105">
        <ele>327.95</ele>
        <time>2019-03-24T09:48:03Z</time>
      </trkpt>
    </trkseg>
  </trk>
</gpx>